Observation data for Boys Ranch on 03/01/2021      Previous  Date  Next       Current Mesonet Observations  Soil Data  Daily Summary Page  Observations in Plain Language
KBY1 010600Z 34004KT M03/M12 A3024 RMK A01 T10301119  RH  050%=      5-min Rain = 0
KBY1 010601Z 34004KT M03/M12 A3024 RMK A01 T10291118  RH  050%=      5-min Rain = 0
KBY1 010602Z 33006KT M03/M12 A3024 RMK A01 T10291119  RH  050%=      5-min Rain = 0
KBY1 010603Z 33005KT M03/M12 A3024 RMK A01 T10281119  RH  049%=      5-min Rain = 0
KBY1 010604Z 33005KT M03/M12 A3024 RMK A01 T10271120  RH  049%=      5-min Rain = 0
KBY1 010605Z 33004KT M03/M12 A3024 RMK A01 T10271119  RH  049%=      5-min Rain = 0
KBY1 010606Z 33004KT M03/M12 A3024 RMK A01 T10271119  RH  049%=      5-min Rain = 0
KBY1 010607Z 33004KT M03/M12 A3024 RMK A01 T10281120  RH  049%=      5-min Rain = 0
KBY1 010608Z 32003KT M03/M12 A3024 RMK A01 T10291120  RH  050%=      5-min Rain = 0
KBY1 010609Z 32003KT M03/M12 A3024 RMK A01 T10301120  RH  050%=      5-min Rain = 0
KBY1 010610Z 27000KT M03/M13 A3024 RMK A01 T10331127  RH  048%=      5-min Rain = 0
KBY1 010611Z 32001KT M04/M13 A3024 RMK A01 T10381130  RH  049%=      5-min Rain = 0
KBY1 010612Z 00000KT M04/M13 A3024 RMK A01 T10391128  RH  050%=      5-min Rain = 0
KBY1 010613Z 31000KT M04/M13 A3024 RMK A01 T10391128  RH  050%=      5-min Rain = 0
KBY1 010614Z 32001KT M04/M13 A3024 RMK A01 T10391127  RH  050%=      5-min Rain = 0
KBY1 010615Z 32002KT M04/M13 A3024 RMK A01 T10391127  RH  050%=      5-min Rain = 0
KBY1 010616Z 33003KT M04/M13 A3024 RMK A01 T10381126  RH  051%=      5-min Rain = 0
KBY1 010617Z 34003KT M04/M13 A3024 RMK A01 T10381125  RH  051%=      5-min Rain = 0
KBY1 010618Z 35002KT M04/M12 A3024 RMK A01 T10371123  RH  051%=      5-min Rain = 0
KBY1 010619Z 35002KT M04/M12 A3024 RMK A01 T10361121  RH  052%=      5-min Rain = 0
KBY1 010620Z 33002KT M04/M12 A3024 RMK A01 T10361120  RH  052%=      5-min Rain = 0
KBY1 010621Z 32002KT M04/M12 A3024 RMK A01 T10351120  RH  052%=      5-min Rain = 0
KBY1 010622Z 32001KT M04/M12 A3025 RMK A01 T10351121  RH  051%=      5-min Rain = 0
KBY1 010623Z 33001KT M04/M12 A3025 RMK A01 T10351123  RH  051%=      5-min Rain = 0
KBY1 010624Z 34001KT M04/M13 A3025 RMK A01 T10371125  RH  050%=      5-min Rain = 0
KBY1 010625Z 36001KT M04/M12 A3025 RMK A01 T10381124  RH  051%=      5-min Rain = 0
KBY1 010626Z 35001KT M04/M12 A3025 RMK A01 T10381124  RH  052%=      5-min Rain = 0
KBY1 010627Z 33002KT M04/M12 A3025 RMK A01 T10391123  RH  052%=      5-min Rain = 0
KBY1 010628Z 34002KT M04/M12 A3025 RMK A01 T10391123  RH  052%=      5-min Rain = 0
KBY1 010629Z 35001KT M04/M13 A3025 RMK A01 T10391125  RH  052%=      5-min Rain = 0
KBY1 010630Z 01001KT M04/M13 A3025 RMK A01 T10401126  RH  051%=      5-min Rain = 0
KBY1 010631Z 00001KT M04/M13 A3025 RMK A01 T10401127  RH  051%=      5-min Rain = 0
KBY1 010632Z 36002KT M04/M13 A3025 RMK A01 T10401127  RH  051%=      5-min Rain = 0
KBY1 010633Z 00001KT M04/M13 A3025 RMK A01 T10401127  RH  051%=      5-min Rain = 0
KBY1 010634Z 02000KT M04/M13 A3025 RMK A01 T10411128  RH  051%=      5-min Rain = 0
KBY1 010635Z 00000KT M04/M13 A3025 RMK A01 T10421128  RH  051%=      5-min Rain = 0
KBY1 010636Z 30000KT M04/M13 A3025 RMK A01 T10431129  RH  051%=      5-min Rain = 0
KBY1 010637Z 00000KT M05/M13 A3025 RMK A01 T10451128  RH  052%=      5-min Rain = 0
KBY1 010638Z 00000KT M05/M13 A3025 RMK A01 T10461128  RH  053%=      5-min Rain = 0
KBY1 010639Z 00000KT M05/M13 A3025 RMK A01 T10461128  RH  053%=      5-min Rain = 0
KBY1 010640Z 00000KT M05/M13 A3025 RMK A01 T10461127  RH  053%=      5-min Rain = 0
KBY1 010641Z 36000KT M05/M13 A3025 RMK A01 T10451126  RH  053%=      5-min Rain = 0
KBY1 010642Z 00000KT M05/M13 A3025 RMK A01 T10451126  RH  053%=      5-min Rain = 0
KBY1 010643Z 00000KT M05/M13 A3025 RMK A01 T10451126  RH  053%=      5-min Rain = 0
KBY1 010644Z 00000KT M05/M13 A3025 RMK A01 T10461128  RH  053%=      5-min Rain = 0
KBY1 010645Z 00000KT M05/M13 A3025 RMK A01 T10481129  RH  053%=      5-min Rain = 0
KBY1 010646Z 00000KT M05/M13 A3025 RMK A01 T10501130  RH  054%=      5-min Rain = 0
KBY1 010647Z 00000KT M05/M13 A3025 RMK A01 T10511130  RH  054%=      5-min Rain = 0
KBY1 010648Z 33000KT M05/M13 A3025 RMK A01 T10521128  RH  055%=      5-min Rain = 0
KBY1 010649Z 33001KT M05/M13 A3025 RMK A01 T10501126  RH  055%=      5-min Rain = 0
KBY1 010650Z 33001KT M05/M13 A3025 RMK A01 T10481125  RH  055%=      5-min Rain = 0
KBY1 010651Z 33000KT M05/M13 A3025 RMK A01 T10471125  RH  054%=      5-min Rain = 0
KBY1 010652Z 36001KT M05/M13 A3025 RMK A01 T10461126  RH  054%=      5-min Rain = 0
KBY1 010653Z 36001KT M05/M13 A3025 RMK A01 T10451127  RH  053%=      5-min Rain = 0
KBY1 010654Z 02002KT M04/M13 A3025 RMK A01 T10441126  RH  053%=      5-min Rain = 0
KBY1 010655Z 01001KT M04/M13 A3025 RMK A01 T10441127  RH  052%=      5-min Rain = 0
KBY1 010656Z 02001KT M04/M13 A3025 RMK A01 T10441127  RH  052%=      5-min Rain = 0
KBY1 010657Z 35001KT M04/M13 A3025 RMK A01 T10441128  RH  052%=      5-min Rain = 0
KBY1 010658Z 35001KT M04/M13 A3025 RMK A01 T10431127  RH  052%=      5-min Rain = 0
KBY1 010659Z 31001KT M04/M13 A3025 RMK A01 T10441129  RH  052%=      5-min Rain = 0
KBY1 010700Z 32001KT M05/M13 A3025 RMK A01 T10461130  RH  052%=      5-min Rain = 0
KBY1 010701Z 33002KT M05/M13 A3025 RMK A01 T10481130  RH  053%=      5-min Rain = 0
KBY1 010702Z 33002KT M05/M13 A3025 RMK A01 T10481128  RH  053%=      5-min Rain = 0
KBY1 010703Z 33003KT M05/M13 A3025 RMK A01 T10471127  RH  054%=      5-min Rain = 0
KBY1 010704Z 33004KT M05/M13 A3025 RMK A01 T10461126  RH  053%=      5-min Rain = 0
KBY1 010705Z 34004KT M05/M13 A3025 RMK A01 T10461127  RH  053%=      5-min Rain = 0
KBY1 010706Z 34002KT M05/M13 A3024 RMK A01 T10451127  RH  053%=      5-min Rain = 0
KBY1 010707Z 33001KT M05/M13 A3024 RMK A01 T10451127  RH  053%=      5-min Rain = 0
KBY1 010708Z 32001KT M05/M13 A3024 RMK A01 T10451127  RH  053%=      5-min Rain = 0
KBY1 010709Z 32001KT M05/M13 A3024 RMK A01 T10451127  RH  053%=      5-min Rain = 0
KBY1 010710Z 30001KT M05/M13 A3024 RMK A01 T10451126  RH  053%=      5-min Rain = 0
KBY1 010711Z 31001KT M04/M13 A3024 RMK A01 T10441126  RH  053%=      5-min Rain = 0
KBY1 010712Z 32002KT M04/M13 A3024 RMK A01 T10441127  RH  053%=      5-min Rain = 0
KBY1 010713Z 33002KT M04/M13 A3024 RMK A01 T10441126  RH  053%=      5-min Rain = 0
KBY1 010714Z 33001KT M04/M13 A3024 RMK A01 T10441126  RH  053%=      5-min Rain = 0
KBY1 010715Z 00001KT M04/M13 A3024 RMK A01 T10431126  RH  052%=      5-min Rain = 0
KBY1 010716Z 36000KT M04/M13 A3025 RMK A01 T10441127  RH  052%=      5-min Rain = 0
KBY1 010717Z 04000KT M05/M13 A3024 RMK A01 T10461128  RH  053%=      5-min Rain = 0
KBY1 010718Z 00001KT M05/M13 A3024 RMK A01 T10471128  RH  053%=      5-min Rain = 0
KBY1 010719Z 36000KT M05/M13 A3025 RMK A01 T10491129  RH  053%=      5-min Rain = 0
KBY1 010720Z 27000KT M05/M13 A3024 RMK A01 T10521132  RH  053%=      5-min Rain = 0
KBY1 010721Z 28000KT M06/M13 A3024 RMK A01 T10551132  RH  055%=      5-min Rain = 0
KBY1 010722Z 26000KT M06/M13 A3024 RMK A01 T10571131  RH  056%=      5-min Rain = 0
KBY1 010723Z 26001KT M06/M13 A3024 RMK A01 T10571129  RH  057%=      5-min Rain = 0
KBY1 010724Z 27001KT M06/M13 A3024 RMK A01 T10561128  RH  057%=      5-min Rain = 0
KBY1 010725Z 24000KT M06/M13 A3024 RMK A01 T10571129  RH  057%=      5-min Rain = 0
KBY1 010726Z 00000KT M06/M13 A3024 RMK A01 T10591131  RH  057%=      5-min Rain = 0
KBY1 010727Z 00000KT M06/M13 A3024 RMK A01 T10611132  RH  057%=      5-min Rain = 0
KBY1 010728Z 00000KT M06/M13 A3024 RMK A01 T10631131  RH  058%=      5-min Rain = 0
KBY1 010729Z 00000KT M06/M13 A3024 RMK A01 T10631130  RH  059%=      5-min Rain = 0
KBY1 010730Z 00000KT M06/M13 A3024 RMK A01 T10641130  RH  059%=      5-min Rain = 0
KBY1 010731Z 00000KT M06/M13 A3024 RMK A01 T10631129  RH  060%=      5-min Rain = 0
KBY1 010732Z 00000KT M06/M13 A3025 RMK A01 T10601126  RH  059%=      5-min Rain = 0
KBY1 010733Z 33000KT M06/M13 A3025 RMK A01 T10581126  RH  059%=      5-min Rain = 0
KBY1 010734Z 00000KT M06/M13 A3025 RMK A01 T10571127  RH  058%=      5-min Rain = 0
KBY1 010735Z 00000KT M06/M13 A3025 RMK A01 T10571127  RH  058%=      5-min Rain = 0
KBY1 010736Z 00000KT M06/M13 A3025 RMK A01 T10561126  RH  058%=      5-min Rain = 0
KBY1 010737Z 00000KT M06/M13 A3025 RMK A01 T10551126  RH  057%=      5-min Rain = 0
KBY1 010738Z 00000KT M06/M13 A3025 RMK A01 T10571130  RH  057%=      5-min Rain = 0
KBY1 010739Z 00000KT M06/M13 A3025 RMK A01 T10591130  RH  057%=      5-min Rain = 0
KBY1 010740Z 00000KT M06/M13 A3025 RMK A01 T10591130  RH  057%=      5-min Rain = 0
KBY1 010741Z 00000KT M06/M13 A3025 RMK A01 T10601130  RH  058%=      5-min Rain = 0
KBY1 010742Z 21001KT M06/M13 A3025 RMK A01 T10611130  RH  058%=      5-min Rain = 0
KBY1 010743Z 23001KT M06/M13 A3025 RMK A01 T10621131  RH  058%=      5-min Rain = 0
KBY1 010744Z 25001KT M06/M13 A3025 RMK A01 T10631131  RH  059%=      5-min Rain = 0
KBY1 010745Z 25001KT M06/M13 A3025 RMK A01 T10631130  RH  059%=      5-min Rain = 0
KBY1 010746Z 27001KT M06/M13 A3025 RMK A01 T10621129  RH  059%=      5-min Rain = 0
KBY1 010747Z 29001KT M06/M13 A3025 RMK A01 T10621129  RH  059%=      5-min Rain = 0
KBY1 010748Z 30000KT M06/M13 A3025 RMK A01 T10611128  RH  059%=      5-min Rain = 0
KBY1 010749Z 33000KT M06/M13 A3025 RMK A01 T10611129  RH  059%=      5-min Rain = 0
KBY1 010750Z 33001KT M06/M13 A3026 RMK A01 T10611129  RH  059%=      5-min Rain = 0
KBY1 010751Z 34000KT M06/M13 A3026 RMK A01 T10601127  RH  059%=      5-min Rain = 0
KBY1 010752Z 35000KT M06/M13 A3026 RMK A01 T10591126  RH  060%=      5-min Rain = 0
KBY1 010753Z 00000KT M06/M12 A3026 RMK A01 T10581124  RH  060%=      5-min Rain = 0
KBY1 010754Z 35000KT M06/M12 A3026 RMK A01 T10571123  RH  060%=      5-min Rain = 0
KBY1 010755Z 01000KT M06/M13 A3026 RMK A01 T10581125  RH  059%=      5-min Rain = 0
KBY1 010756Z 00000KT M06/M13 A3026 RMK A01 T10571125  RH  059%=      5-min Rain = 0
KBY1 010757Z 00000KT M06/M12 A3026 RMK A01 T10561124  RH  059%=      5-min Rain = 0
KBY1 010758Z 00000KT M05/M12 A3026 RMK A01 T10541123  RH  058%=      5-min Rain = 0
KBY1 010759Z 00000KT M05/M12 A3026 RMK A01 T10541124  RH  058%=      5-min Rain = 0
KBY1 010800Z 25000KT M06/M13 A3026 RMK A01 T10551126  RH  057%=      5-min Rain = 0
KBY1 010801Z 24000KT M06/M13 A3026 RMK A01 T10551126  RH  057%=      5-min Rain = 0
KBY1 010802Z 23000KT M06/M13 A3026 RMK A01 T10561128  RH  057%=      5-min Rain = 0
KBY1 010803Z 24000KT M06/M13 A3026 RMK A01 T10571129  RH  057%=      5-min Rain = 0
KBY1 010804Z 26001KT M06/M13 A3026 RMK A01 T10581130  RH  057%=      5-min Rain = 0
KBY1 010805Z 25001KT M06/M13 A3026 RMK A01 T10591130  RH  057%=      5-min Rain = 0
KBY1 010806Z 26001KT M06/M13 A3026 RMK A01 T10601130  RH  058%=      5-min Rain = 0
KBY1 010807Z 26001KT M06/M13 A3026 RMK A01 T10591129  RH  058%=      5-min Rain = 0
KBY1 010808Z 27001KT M06/M13 A3026 RMK A01 T10601129  RH  058%=      5-min Rain = 0
KBY1 010809Z 28001KT M06/M13 A3026 RMK A01 T10601129  RH  058%=      5-min Rain = 0
KBY1 010810Z 29001KT M06/M13 A3026 RMK A01 T10591128  RH  058%=      5-min Rain = 0
KBY1 010811Z 29001KT M06/M13 A3026 RMK A01 T10581127  RH  058%=      5-min Rain = 0
KBY1 010812Z 29001KT M06/M13 A3026 RMK A01 T10591127  RH  058%=      5-min Rain = 0
KBY1 010813Z 30001KT M06/M13 A3026 RMK A01 T10591128  RH  058%=      5-min Rain = 0
KBY1 010814Z 31001KT M06/M13 A3026 RMK A01 T10601128  RH  059%=      5-min Rain = 0
KBY1 010815Z 32002KT M06/M13 A3026 RMK A01 T10591127  RH  059%=      5-min Rain = 0
KBY1 010816Z 33002KT M06/M13 A3026 RMK A01 T10591126  RH  059%=      5-min Rain = 0
KBY1 010817Z 34002KT M06/M13 A3026 RMK A01 T10591126  RH  059%=      5-min Rain = 0
KBY1 010818Z 33002KT M06/M13 A3026 RMK A01 T10591127  RH  059%=      5-min Rain = 0
KBY1 010819Z 33002KT M06/M13 A3026 RMK A01 T10581126  RH  059%=      5-min Rain = 0
KBY1 010820Z 32002KT M06/M13 A3026 RMK A01 T10581125  RH  059%=      5-min Rain = 0
KBY1 010821Z 33002KT M06/M12 A3026 RMK A01 T10571124  RH  059%=      5-min Rain = 0
KBY1 010822Z 34002KT M06/M12 A3026 RMK A01 T10551122  RH  060%=      5-min Rain = 0
KBY1 010823Z 35002KT M05/M12 A3025 RMK A01 T10541122  RH  059%=      5-min Rain = 0
KBY1 010824Z 01001KT M06/M12 A3025 RMK A01 T10551124  RH  058%=      5-min Rain = 0
KBY1 010825Z 00001KT M06/M13 A3025 RMK A01 T10561126  RH  058%=      5-min Rain = 0
KBY1 010826Z 05000KT M06/M13 A3025 RMK A01 T10561126  RH  058%=      5-min Rain = 0
KBY1 010827Z 00000KT M06/M13 A3025 RMK A01 T10571128  RH  057%=      5-min Rain = 0
KBY1 010828Z 19001KT M06/M13 A3026 RMK A01 T10601131  RH  057%=      5-min Rain = 0
KBY1 010829Z 22001KT M06/M13 A3026 RMK A01 T10621131  RH  058%=      5-min Rain = 0
KBY1 010830Z 22001KT M06/M13 A3026 RMK A01 T10641131  RH  059%=      5-min Rain = 0
KBY1 010831Z 24002KT M06/M13 A3026 RMK A01 T10641129  RH  060%=      5-min Rain = 0
KBY1 010832Z 24002KT M06/M13 A3027 RMK A01 T10631128  RH  060%=      5-min Rain = 0
KBY1 010833Z 24003KT M06/M13 A3027 RMK A01 T10621128  RH  060%=      5-min Rain = 0
KBY1 010834Z 23003KT M06/M13 A3027 RMK A01 T10621129  RH  059%=      5-min Rain = 0
KBY1 010835Z 24003KT M06/M13 A3027 RMK A01 T10621130  RH  059%=      5-min Rain = 0
KBY1 010836Z 25003KT M06/M13 A3027 RMK A01 T10631131  RH  059%=      5-min Rain = 0
KBY1 010837Z 26003KT M06/M13 A3027 RMK A01 T10641131  RH  059%=      5-min Rain = 0
KBY1 010838Z 27003KT M07/M13 A3027 RMK A01 T10651131  RH  060%=      5-min Rain = 0
KBY1 010839Z 28002KT M06/M13 A3027 RMK A01 T10641129  RH  060%=      5-min Rain = 0
KBY1 010840Z 29003KT M06/M13 A3026 RMK A01 T10621127  RH  060%=      5-min Rain = 0
KBY1 010841Z 29002KT M06/M13 A3027 RMK A01 T10621128  RH  060%=      5-min Rain = 0
KBY1 010842Z 29002KT M06/M13 A3027 RMK A01 T10621128  RH  059%=      5-min Rain = 0
KBY1 010843Z 30001KT M06/M13 A3027 RMK A01 T10611128  RH  059%=      5-min Rain = 0
KBY1 010844Z 00000KT M06/M13 A3027 RMK A01 T10611128  RH  059%=      5-min Rain = 0
KBY1 010845Z 00000KT M06/M13 A3028 RMK A01 T10611129  RH  059%=      5-min Rain = 0
KBY1 010846Z 30000KT M06/M13 A3028 RMK A01 T10621130  RH  059%=      5-min Rain = 0
KBY1 010847Z 29000KT M06/M13 A3028 RMK A01 T10621130  RH  059%=      5-min Rain = 0
KBY1 010848Z 25001KT M06/M13 A3027 RMK A01 T10621129  RH  059%=      5-min Rain = 0
KBY1 010849Z 27001KT M06/M13 A3027 RMK A01 T10631130  RH  059%=      5-min Rain = 0
KBY1 010850Z 28002KT M06/M13 A3027 RMK A01 T10631130  RH  059%=      5-min Rain = 0
KBY1 010851Z 27003KT M06/M13 A3027 RMK A01 T10631129  RH  059%=      5-min Rain = 0
KBY1 010852Z 28002KT M06/M13 A3027 RMK A01 T10621128  RH  060%=      5-min Rain = 0
KBY1 010853Z 30003KT M06/M13 A3027 RMK A01 T10631128  RH  060%=      5-min Rain = 0
KBY1 010854Z 31003KT M06/M13 A3027 RMK A01 T10631129  RH  060%=      5-min Rain = 0
KBY1 010855Z 31003KT M06/M13 A3027 RMK A01 T10631129  RH  060%=      5-min Rain = 0
KBY1 010856Z 30003KT M06/M13 A3027 RMK A01 T10631128  RH  060%=      5-min Rain = 0
KBY1 010857Z 30004KT M06/M13 A3027 RMK A01 T10631128  RH  060%=      5-min Rain = 0
KBY1 010858Z 30004KT M06/M13 A3027 RMK A01 T10621127  RH  060%=      5-min Rain = 0
KBY1 010859Z 30003KT M06/M13 A3028 RMK A01 T10611127  RH  060%=      5-min Rain = 0
KBY1 010900Z 31003KT M06/M13 A3028 RMK A01 T10601127  RH  059%=      5-min Rain = 0
KBY1 010901Z 31003KT M06/M13 A3028 RMK A01 T10601126  RH  059%=      5-min Rain = 0
KBY1 010902Z 30002KT M06/M13 A3028 RMK A01 T10601127  RH  059%=      5-min Rain = 0
KBY1 010903Z 29002KT M06/M13 A3028 RMK A01 T10601128  RH  059%=      5-min Rain = 0
KBY1 010904Z 29003KT M06/M13 A3028 RMK A01 T10601128  RH  059%=      5-min Rain = 0
KBY1 010905Z 29002KT M06/M13 A3028 RMK A01 T10601127  RH  059%=      5-min Rain = 0
KBY1 010906Z 30002KT M06/M13 A3028 RMK A01 T10601128  RH  059%=      5-min Rain = 0
KBY1 010907Z 31003KT M06/M13 A3028 RMK A01 T10611128  RH  059%=      5-min Rain = 0
KBY1 010908Z 31003KT M06/M13 A3028 RMK A01 T10611128  RH  059%=      5-min Rain = 0
KBY1 010909Z 31004KT M06/M13 A3028 RMK A01 T10611128  RH  059%=      5-min Rain = 0
KBY1 010910Z 31004KT M06/M13 A3027 RMK A01 T10611128  RH  059%=      5-min Rain = 0
KBY1 010911Z 32004KT M06/M13 A3027 RMK A01 T10611128  RH  059%=      5-min Rain = 0
KBY1 010912Z 32004KT M06/M13 A3027 RMK A01 T10611128  RH  059%=      5-min Rain = 0
KBY1 010913Z 31005KT M06/M13 A3027 RMK A01 T10611127  RH  059%=      5-min Rain = 0
KBY1 010914Z 32005KT M06/M13 A3027 RMK A01 T10601127  RH  059%=      5-min Rain = 0
KBY1 010915Z 32005KT M06/M13 A3027 RMK A01 T10601126  RH  059%=      5-min Rain = 0
KBY1 010916Z 32005KT M06/M13 A3027 RMK A01 T10581125  RH  059%=      5-min Rain = 0
KBY1 010917Z 33004KT M06/M13 A3027 RMK A01 T10571125  RH  059%=      5-min Rain = 0
KBY1 010918Z 34004KT M06/M13 A3027 RMK A01 T10581125  RH  059%=      5-min Rain = 0
KBY1 010919Z 34004KT M06/M13 A3027 RMK A01 T10581125  RH  059%=      5-min Rain = 0
KBY1 010920Z 33004KT M06/M12 A3027 RMK A01 T10581124  RH  060%=      5-min Rain = 0
KBY1 010921Z 33003KT M06/M12 A3027 RMK A01 T10581121  RH  061%=      5-min Rain = 0
KBY1 010922Z 33004KT M06/M12 A3027 RMK A01 T10571119  RH  062%=      5-min Rain = 0
KBY1 010923Z 33004KT M06/M12 A3027 RMK A01 T10561118  RH  062%=      5-min Rain = 0
KBY1 010924Z 33004KT M06/M12 A3027 RMK A01 T10561118  RH  062%=      5-min Rain = 0
KBY1 010925Z 32002KT M06/M12 A3027 RMK A01 T10561119  RH  061%=      5-min Rain = 0
KBY1 010926Z 29001KT M06/M12 A3027 RMK A01 T10571121  RH  061%=      5-min Rain = 0
KBY1 010927Z 36000KT M06/M12 A3027 RMK A01 T10571121  RH  061%=      5-min Rain = 0
KBY1 010928Z 06001KT M06/M12 A3027 RMK A01 T10571119  RH  061%=      5-min Rain = 0
KBY1 010929Z 32001KT M06/M12 A3027 RMK A01 T10561120  RH  061%=      5-min Rain = 0
KBY1 010930Z 32001KT M06/M12 A3027 RMK A01 T10571121  RH  060%=      5-min Rain = 0
KBY1 010931Z 03000KT M06/M12 A3027 RMK A01 T10581124  RH  060%=      5-min Rain = 0
KBY1 010932Z 20000KT M06/M13 A3027 RMK A01 T10621128  RH  059%=      5-min Rain = 0
KBY1 010933Z 20001KT M07/M13 A3027 RMK A01 T10651131  RH  059%=      5-min Rain = 0
KBY1 010934Z 20000KT M07/M13 A3027 RMK A01 T10661130  RH  061%=      5-min Rain = 0
KBY1 010935Z 29000KT M07/M13 A3027 RMK A01 T10661127  RH  062%=      5-min Rain = 0
KBY1 010936Z 29000KT M07/M13 A3027 RMK A01 T10661125  RH  063%=      5-min Rain = 0
KBY1 010937Z 31001KT M07/M12 A3027 RMK A01 T10651124  RH  063%=      5-min Rain = 0
KBY1 010938Z 35000KT M06/M12 A3027 RMK A01 T10631123  RH  063%=      5-min Rain = 0
KBY1 010939Z 35001KT M06/M12 A3027 RMK A01 T10631123  RH  062%=      5-min Rain = 0
KBY1 010940Z 00000KT M06/M12 A3027 RMK A01 T10621122  RH  062%=      5-min Rain = 0
KBY1 010941Z 00000KT M06/M12 A3027 RMK A01 T10611121  RH  062%=      5-min Rain = 0
KBY1 010942Z 00000KT M06/M12 A3027 RMK A01 T10611122  RH  062%=      5-min Rain = 0
KBY1 010943Z 33001KT M06/M12 A3027 RMK A01 T10621123  RH  062%=      5-min Rain = 0
KBY1 010944Z 33001KT M06/M12 A3027 RMK A01 T10611120  RH  063%=      5-min Rain = 0
KBY1 010945Z 31001KT M06/M12 A3027 RMK A01 T10601119  RH  063%=      5-min Rain = 0
KBY1 010946Z 31001KT M06/M12 A3027 RMK A01 T10601119  RH  063%=      5-min Rain = 0
KBY1 010947Z 31000KT M06/M12 A3028 RMK A01 T10591119  RH  063%=      5-min Rain = 0
KBY1 010948Z 00000KT M06/M12 A3028 RMK A01 T10591121  RH  062%=      5-min Rain = 0
KBY1 010949Z 29000KT M06/M12 A3028 RMK A01 T10611124  RH  061%=      5-min Rain = 0
KBY1 010950Z 30001KT M06/M12 A3027 RMK A01 T10621124  RH  061%=      5-min Rain = 0
KBY1 010951Z 32002KT M06/M12 A3027 RMK A01 T10621124  RH  062%=      5-min Rain = 0
KBY1 010952Z 31003KT M06/M12 A3027 RMK A01 T10631123  RH  062%=      5-min Rain = 0
KBY1 010953Z 32003KT M06/M12 A3027 RMK A01 T10621123  RH  062%=      5-min Rain = 0
KBY1 010954Z 32004KT M06/M12 A3027 RMK A01 T10621122  RH  062%=      5-min Rain = 0
KBY1 010955Z 31005KT M06/M12 A3027 RMK A01 T10611122  RH  062%=      5-min Rain = 0
KBY1 010956Z 32006KT M06/M12 A3027 RMK A01 T10611122  RH  062%=      5-min Rain = 0
KBY1 010957Z 32006KT M06/M12 A3027 RMK A01 T10611122  RH  062%=      5-min Rain = 0
KBY1 010958Z 32006KT M06/M12 A3027 RMK A01 T10611123  RH  061%=      5-min Rain = 0
KBY1 010959Z 32005KT M06/M12 A3027 RMK A01 T10611123  RH  061%=      5-min Rain = 0
KBY1 011000Z 33004KT M06/M12 A3028 RMK A01 T10601123  RH  061%=      5-min Rain = 0
KBY1 011001Z 31002KT M06/M12 A3028 RMK A01 T10601124  RH  061%=      5-min Rain = 0
KBY1 011002Z 21002KT M06/M13 A3028 RMK A01 T10631127  RH  060%=      5-min Rain = 0
KBY1 011003Z 21002KT M07/M13 A3028 RMK A01 T10651128  RH  061%=      5-min Rain = 0
KBY1 011004Z 25002KT M07/M13 A3028 RMK A01 T10651127  RH  062%=      5-min Rain = 0
KBY1 011005Z 24002KT M07/M13 A3028 RMK A01 T10661127  RH  062%=      5-min Rain = 0
KBY1 011006Z 27002KT M07/M13 A3028 RMK A01 T10671127  RH  062%=      5-min Rain = 0
KBY1 011007Z 28001KT M07/M13 A3028 RMK A01 T10671126  RH  063%=      5-min Rain = 0
KBY1 011008Z 27002KT M07/M13 A3028 RMK A01 T10661126  RH  063%=      5-min Rain = 0
KBY1 011009Z 31001KT M07/M13 A3028 RMK A01 T10671127  RH  062%=      5-min Rain = 0
KBY1 011010Z 31002KT M07/M13 A3028 RMK A01 T10661126  RH  062%=      5-min Rain = 0
KBY1 011011Z 31004KT M07/M13 A3027 RMK A01 T10671126  RH  063%=      5-min Rain = 0
KBY1 011012Z 31005KT M07/M13 A3027 RMK A01 T10661125  RH  063%=      5-min Rain = 0
KBY1 011013Z 31007KT M06/M12 A3027 RMK A01 T10641123  RH  063%=      5-min Rain = 0
KBY1 011014Z 32007KT M06/M12 A3027 RMK A01 T10621122  RH  063%=      5-min Rain = 0
KBY1 011015Z 32007KT M06/M12 A3027 RMK A01 T10621122  RH  062%=      5-min Rain = 0
KBY1 011016Z 32007KT M06/M12 A3028 RMK A01 T10611122  RH  062%=      5-min Rain = 0
KBY1 011017Z 32007KT M06/M12 A3028 RMK A01 T10591121  RH  062%=      5-min Rain = 0
KBY1 011018Z 32007KT M06/M12 A3028 RMK A01 T10591122  RH  061%=      5-min Rain = 0
KBY1 011019Z 32008KT M06/M12 A3028 RMK A01 T10591122  RH  061%=      5-min Rain = 0
KBY1 011020Z 32007KT M06/M12 A3027 RMK A01 T10581122  RH  061%=      5-min Rain = 0
KBY1 011021Z 32007KT M06/M12 A3027 RMK A01 T10581122  RH  060%=      5-min Rain = 0
KBY1 011022Z 32007KT M06/M12 A3027 RMK A01 T10581123  RH  060%=      5-min Rain = 0
KBY1 011023Z 32008KT M06/M12 A3027 RMK A01 T10581122  RH  060%=      5-min Rain = 0
KBY1 011024Z 32007KT M06/M12 A3027 RMK A01 T10581122  RH  060%=      5-min Rain = 0
KBY1 011025Z 32007KT M06/M12 A3027 RMK A01 T10591123  RH  061%=      5-min Rain = 0
KBY1 011026Z 32007KT M06/M12 A3027 RMK A01 T10581122  RH  061%=      5-min Rain = 0
KBY1 011027Z 32008KT M06/M12 A3028 RMK A01 T10591122  RH  061%=      5-min Rain = 0
KBY1 011028Z 32008KT M06/M12 A3028 RMK A01 T10591122  RH  061%=      5-min Rain = 0
KBY1 011029Z 32007KT M06/M12 A3028 RMK A01 T10581122  RH  061%=      5-min Rain = 0
KBY1 011030Z 31005KT M06/M12 A3028 RMK A01 T10581122  RH  061%=      5-min Rain = 0
KBY1 011031Z 31005KT M06/M12 A3028 RMK A01 T10581122  RH  061%=      5-min Rain = 0
KBY1 011032Z 30005KT M06/M12 A3028 RMK A01 T10591123  RH  061%=      5-min Rain = 0
KBY1 011033Z 29004KT M06/M12 A3028 RMK A01 T10591123  RH  061%=      5-min Rain = 0
KBY1 011034Z 29004KT M06/M12 A3028 RMK A01 T10611124  RH  061%=      5-min Rain = 0
KBY1 011035Z 29004KT M06/M12 A3028 RMK A01 T10611124  RH  061%=      5-min Rain = 0
KBY1 011036Z 29005KT M06/M12 A3028 RMK A01 T10611123  RH  061%=      5-min Rain = 0
KBY1 011037Z 30005KT M06/M12 A3028 RMK A01 T10611124  RH  061%=      5-min Rain = 0
KBY1 011038Z 29005KT M06/M12 A3028 RMK A01 T10611124  RH  061%=      5-min Rain = 0
KBY1 011039Z 29006KT M06/M12 A3028 RMK A01 T10611123  RH  061%=      5-min Rain = 0
KBY1 011040Z 30006KT M06/M12 A3028 RMK A01 T10611123  RH  061%=      5-min Rain = 0
KBY1 011041Z 30007KT M06/M12 A3028 RMK A01 T10601124  RH  061%=      5-min Rain = 0
KBY1 011042Z 30008KT M06/M12 A3028 RMK A01 T10601123  RH  061%=      5-min Rain = 0
KBY1 011043Z 31007KT M06/M12 A3028 RMK A01 T10591123  RH  061%=      5-min Rain = 0
KBY1 011044Z 31007KT M06/M12 A3028 RMK A01 T10591123  RH  060%=      5-min Rain = 0
KBY1 011045Z 31008KT M06/M12 A3028 RMK A01 T10581123  RH  060%=      5-min Rain = 0
KBY1 011046Z 31007KT M06/M12 A3028 RMK A01 T10581122  RH  060%=      5-min Rain = 0
KBY1 011047Z 31008KT M06/M12 A3028 RMK A01 T10581123  RH  060%=      5-min Rain = 0
KBY1 011048Z 31008KT M06/M12 A3028 RMK A01 T10571122  RH  060%=      5-min Rain = 0
KBY1 011049Z 30008KT M06/M12 A3028 RMK A01 T10571122  RH  060%=      5-min Rain = 0
KBY1 011050Z 30007KT M06/M12 A3028 RMK A01 T10581123  RH  060%=      5-min Rain = 0
KBY1 011051Z 30007KT M06/M12 A3028 RMK A01 T10581123  RH  060%=      5-min Rain = 0
KBY1 011052Z 30007KT M06/M12 A3028 RMK A01 T10571122  RH  060%=      5-min Rain = 0
KBY1 011053Z 30008KT M06/M12 A3028 RMK A01 T10571123  RH  060%=      5-min Rain = 0
KBY1 011054Z 30007KT M06/M12 A3028 RMK A01 T10571123  RH  060%=      5-min Rain = 0
KBY1 011055Z 30006KT M06/M12 A3028 RMK A01 T10561122  RH  060%=      5-min Rain = 0
KBY1 011056Z 30006KT M06/M12 A3028 RMK A01 T10561122  RH  060%=      5-min Rain = 0
KBY1 011057Z 30006KT M06/M12 A3028 RMK A01 T10561122  RH  060%=      5-min Rain = 0
KBY1 011058Z 30007KT M06/M12 A3029 RMK A01 T10551121  RH  060%=      5-min Rain = 0
KBY1 011059Z 29006KT M05/M12 A3029 RMK A01 T10541121  RH  060%=      5-min Rain = 0
KBY1 011100Z 29007KT M06/M12 A3029 RMK A01 T10551122  RH  059%=      5-min Rain = 0
KBY1 011101Z 29007KT M06/M12 A3029 RMK A01 T10551122  RH  059%=      5-min Rain = 0
KBY1 011102Z 29006KT M05/M12 A3029 RMK A01 T10541122  RH  059%=      5-min Rain = 0
KBY1 011103Z 28006KT M06/M12 A3029 RMK A01 T10561124  RH  059%=      5-min Rain = 0
KBY1 011104Z 28006KT M06/M13 A3029 RMK A01 T10601128  RH  059%=      5-min Rain = 0
KBY1 011105Z 28007KT M06/M13 A3029 RMK A01 T10621128  RH  059%=      5-min Rain = 0
KBY1 011106Z 29006KT M06/M13 A3029 RMK A01 T10631127  RH  060%=      5-min Rain = 0
KBY1 011107Z 29005KT M06/M13 A3029 RMK A01 T10641127  RH  061%=      5-min Rain = 0
KBY1 011108Z 29005KT M06/M13 A3029 RMK A01 T10641127  RH  061%=      5-min Rain = 0
KBY1 011109Z 29005KT M06/M13 A3029 RMK A01 T10641126  RH  062%=      5-min Rain = 0
KBY1 011110Z 28005KT M07/M13 A3029 RMK A01 T10651126  RH  062%=      5-min Rain = 0
KBY1 011111Z 30003KT M07/M13 A3029 RMK A01 T10651126  RH  062%=      5-min Rain = 0
KBY1 011112Z 30004KT M07/M13 A3029 RMK A01 T10651125  RH  062%=      5-min Rain = 0
KBY1 011113Z 30005KT M06/M13 A3029 RMK A01 T10641125  RH  062%=      5-min Rain = 0
KBY1 011114Z 29004KT M07/M13 A3029 RMK A01 T10651125  RH  062%=      5-min Rain = 0
KBY1 011115Z 29006KT M07/M13 A3029 RMK A01 T10651125  RH  062%=      5-min Rain = 0
KBY1 011116Z 29006KT M07/M13 A3029 RMK A01 T10651125  RH  063%=      5-min Rain = 0
KBY1 011117Z 29006KT M07/M12 A3029 RMK A01 T10651124  RH  063%=      5-min Rain = 0
KBY1 011118Z 29005KT M07/M13 A3029 RMK A01 T10661125  RH  063%=      5-min Rain = 0
KBY1 011119Z 29004KT M07/M12 A3029 RMK A01 T10661124  RH  063%=      5-min Rain = 0
KBY1 011120Z 29004KT M07/M12 A303 RMK A01 T10661124  RH  063%=      5-min Rain = 0
KBY1 011121Z 28005KT M07/M12 A303 RMK A01 T10671124  RH  064%=      5-min Rain = 0
KBY1 011122Z 28005KT M07/M12 A303 RMK A01 T10661123  RH  064%=      5-min Rain = 0
KBY1 011123Z 28004KT M07/M12 A303 RMK A01 T10661123  RH  064%=      5-min Rain = 0
KBY1 011124Z 28004KT M07/M12 A3031 RMK A01 T10671124  RH  064%=      5-min Rain = 0
KBY1 011125Z 28004KT M07/M12 A3031 RMK A01 T10671123  RH  064%=      5-min Rain = 0
KBY1 011126Z 28004KT M07/M12 A3031 RMK A01 T10671123  RH  064%=      5-min Rain = 0
KBY1 011127Z 29005KT M07/M12 A3031 RMK A01 T10671124  RH  064%=      5-min Rain = 0
KBY1 011128Z 28005KT M07/M12 A3031 RMK A01 T10671124  RH  064%=      5-min Rain = 0
KBY1 011129Z 29004KT M07/M13 A3031 RMK A01 T10681125  RH  064%=      5-min Rain = 0
KBY1 011130Z 28004KT M07/M13 A3031 RMK A01 T10681125  RH  064%=      5-min Rain = 0
KBY1 011131Z 28003KT M07/M12 A3031 RMK A01 T10681124  RH  064%=      5-min Rain = 0
KBY1 011132Z 27003KT M07/M12 A3031 RMK A01 T10681124  RH  065%=      5-min Rain = 0
KBY1 011133Z 27004KT M07/M12 A3031 RMK A01 T10681124  RH  065%=      5-min Rain = 0
KBY1 011134Z 27005KT M07/M12 A3032 RMK A01 T10671123  RH  065%=      5-min Rain = 0
KBY1 011135Z 27005KT M07/M12 A3032 RMK A01 T10671123  RH  064%=      5-min Rain = 0
KBY1 011136Z 27006KT M07/M12 A3032 RMK A01 T10681124  RH  064%=      5-min Rain = 0
KBY1 011137Z 27006KT M07/M12 A3032 RMK A01 T10671123  RH  064%=      5-min Rain = 0
KBY1 011138Z 28005KT M07/M12 A3032 RMK A01 T10661123  RH  064%=      5-min Rain = 0
KBY1 011139Z 28005KT M07/M12 A3032 RMK A01 T10671124  RH  064%=      5-min Rain = 0
KBY1 011140Z 28006KT M07/M12 A3032 RMK A01 T10671124  RH  064%=      5-min Rain = 0
KBY1 011141Z 28005KT M07/M12 A3032 RMK A01 T10671123  RH  064%=      5-min Rain = 0
KBY1 011142Z 28004KT M07/M12 A3032 RMK A01 T10671123  RH  064%=      5-min Rain = 0
KBY1 011143Z 28005KT M07/M12 A3032 RMK A01 T10671123  RH  065%=      5-min Rain = 0
KBY1 011144Z 28006KT M07/M12 A3032 RMK A01 T10671123  RH  065%=      5-min Rain = 0
KBY1 011145Z 28007KT M07/M12 A3032 RMK A01 T10671123  RH  065%=      5-min Rain = 0
KBY1 011146Z 27006KT M07/M12 A3032 RMK A01 T10671123  RH  065%=      5-min Rain = 0
KBY1 011147Z 27007KT M07/M12 A3032 RMK A01 T10671122  RH  065%=      5-min Rain = 0
KBY1 011148Z 28006KT M07/M12 A3032 RMK A01 T10671123  RH  064%=      5-min Rain = 0
KBY1 011149Z 28006KT M07/M12 A3032 RMK A01 T10661123  RH  064%=      5-min Rain = 0
KBY1 011150Z 28006KT M07/M12 A3032 RMK A01 T10671123  RH  064%=      5-min Rain = 0
KBY1 011151Z 28005KT M07/M12 A3033 RMK A01 T10661123  RH  064%=      5-min Rain = 0
KBY1 011152Z 28006KT M07/M12 A3033 RMK A01 T10661123  RH  064%=      5-min Rain = 0
KBY1 011153Z 28006KT M07/M12 A3033 RMK A01 T10661123  RH  064%=      5-min Rain = 0
KBY1 011154Z 29005KT M07/M12 A3033 RMK A01 T10661123  RH  064%=      5-min Rain = 0
KBY1 011155Z 30005KT M07/M12 A3033 RMK A01 T10661123  RH  064%=      5-min Rain = 0
KBY1 011156Z 30005KT M07/M12 A3033 RMK A01 T10661123  RH  064%=      5-min Rain = 0
KBY1 011157Z 28005KT M07/M12 A3033 RMK A01 T10661123  RH  064%=      5-min Rain = 0
KBY1 011158Z 27004KT M07/M12 A3033 RMK A01 T10671123  RH  064%=      5-min Rain = 0
KBY1 011159Z 27004KT M07/M12 A3033 RMK A01 T10661122  RH  064%=      5-min Rain = 0
KBY1 011200Z 28005KT M06/M12 A3033 RMK A01 T10641121  RH  064%=      5-min Rain = 0
KBY1 011201Z 29005KT M06/M12 A3033 RMK A01 T10641121  RH  064%=      5-min Rain = 0
KBY1 011202Z 28005KT M06/M12 A3033 RMK A01 T10641122  RH  064%=      5-min Rain = 0
KBY1 011203Z 28005KT M06/M12 A3033 RMK A01 T10641122  RH  064%=      5-min Rain = 0
KBY1 011204Z 28005KT M06/M12 A3033 RMK A01 T10641122  RH  064%=      5-min Rain = 0
KBY1 011205Z 29005KT M06/M12 A3033 RMK A01 T10631121  RH  064%=      5-min Rain = 0
KBY1 011206Z 29004KT M06/M12 A3034 RMK A01 T10621121  RH  063%=      5-min Rain = 0
KBY1 011207Z 29004KT M06/M12 A3034 RMK A01 T10631122  RH  063%=      5-min Rain = 0
KBY1 011208Z 30003KT M06/M12 A3034 RMK A01 T10641123  RH  063%=      5-min Rain = 0
KBY1 011209Z 29002KT M07/M12 A3034 RMK A01 T10651123  RH  063%=      5-min Rain = 0
KBY1 011210Z 29004KT M07/M12 A3034 RMK A01 T10651123  RH  064%=      5-min Rain = 0
KBY1 011211Z 29004KT M07/M12 A3034 RMK A01 T10671123  RH  064%=      5-min Rain = 0
KBY1 011212Z 30005KT M07/M12 A3034 RMK A01 T10671123  RH  064%=      5-min Rain = 0
KBY1 011213Z 29005KT M07/M12 A3034 RMK A01 T10661122  RH  065%=      5-min Rain = 0
KBY1 011214Z 29006KT M07/M12 A3034 RMK A01 T10671123  RH  065%=      5-min Rain = 0
KBY1 011215Z 29005KT M07/M12 A3034 RMK A01 T10661121  RH  065%=      5-min Rain = 0
KBY1 011216Z 30006KT M06/M12 A3034 RMK A01 T10641120  RH  065%=      5-min Rain = 0
KBY1 011217Z 30006KT M07/M12 A3034 RMK A01 T10651121  RH  064%=      5-min Rain = 0
KBY1 011218Z 30006KT M07/M12 A3034 RMK A01 T10651121  RH  064%=      5-min Rain = 0
KBY1 011219Z 30006KT M07/M12 A3034 RMK A01 T10651121  RH  064%=      5-min Rain = 0
KBY1 011220Z 30006KT M07/M12 A3034 RMK A01 T10661122  RH  064%=      5-min Rain = 0
KBY1 011221Z 29006KT M07/M12 A3034 RMK A01 T10661122  RH  065%=      5-min Rain = 0
KBY1 011222Z 30007KT M07/M12 A3034 RMK A01 T10671122  RH  065%=      5-min Rain = 0
KBY1 011223Z 30007KT M07/M12 A3034 RMK A01 T10671122  RH  065%=      5-min Rain = 0
KBY1 011224Z 30008KT M07/M12 A3034 RMK A01 T10671122  RH  065%=      5-min Rain = 0
KBY1 011225Z 30008KT M07/M12 A3035 RMK A01 T10681122  RH  065%=      5-min Rain = 0
KBY1 011226Z 30008KT M07/M12 A3035 RMK A01 T10681122  RH  065%=      5-min Rain = 0
KBY1 011227Z 30007KT M07/M12 A3035 RMK A01 T10681122  RH  065%=      5-min Rain = 0
KBY1 011228Z 30007KT M07/M12 A3035 RMK A01 T10671121  RH  066%=      5-min Rain = 0
KBY1 011229Z 30006KT M07/M12 A3035 RMK A01 T10681122  RH  066%=      5-min Rain = 0
KBY1 011230Z 30007KT M07/M12 A3035 RMK A01 T10691123  RH  066%=      5-min Rain = 0
KBY1 011231Z 30007KT M07/M12 A3035 RMK A01 T10691122  RH  066%=      5-min Rain = 0
KBY1 011232Z 29008KT M07/M12 A3035 RMK A01 T10701122  RH  066%=      5-min Rain = 0
KBY1 011233Z 30007KT M07/M12 A3035 RMK A01 T10701122  RH  066%=      5-min Rain = 0
KBY1 011234Z 30007KT M07/M12 A3035 RMK A01 T10701122  RH  066%=      5-min Rain = 0
KBY1 011235Z 29007KT M07/M12 A3035 RMK A01 T10691122  RH  066%=      5-min Rain = 0
KBY1 011236Z 29007KT M07/M12 A3035 RMK A01 T10691122  RH  066%=      5-min Rain = 0
KBY1 011237Z 30007KT M07/M12 A3035 RMK A01 T10691122  RH  066%=      5-min Rain = 0
KBY1 011238Z 30007KT M07/M12 A3036 RMK A01 T10681121  RH  066%=      5-min Rain = 0
KBY1 011239Z 30007KT M07/M12 A3036 RMK A01 T10691122  RH  066%=      5-min Rain = 0
KBY1 011240Z 30007KT M07/M12 A3036 RMK A01 T10691122  RH  066%=      5-min Rain = 0
KBY1 011241Z 30006KT M07/M12 A3036 RMK A01 T10681122  RH  066%=      5-min Rain = 0
KBY1 011242Z 30007KT M07/M12 A3036 RMK A01 T10691122  RH  066%=      5-min Rain = 0
KBY1 011243Z 30006KT M07/M12 A3036 RMK A01 T10691122  RH  066%=      5-min Rain = 0
KBY1 011244Z 30006KT M07/M12 A3036 RMK A01 T10681122  RH  066%=      5-min Rain = 0
KBY1 011245Z 31006KT M07/M12 A3036 RMK A01 T10691122  RH  066%=      5-min Rain = 0
KBY1 011246Z 30007KT M07/M12 A3036 RMK A01 T10701123  RH  066%=      5-min Rain = 0
KBY1 011247Z 30007KT M07/M12 A3036 RMK A01 T10711123  RH  066%=      5-min Rain = 0
KBY1 011248Z 30008KT M07/M12 A3036 RMK A01 T10711123  RH  067%=      5-min Rain = 0
KBY1 011249Z 30008KT M07/M12 A3036 RMK A01 T10721123  RH  067%=      5-min Rain = 0
KBY1 011250Z 30007KT M07/M12 A3036 RMK A01 T10711123  RH  067%=      5-min Rain = 0
KBY1 011251Z 30007KT M07/M12 A3036 RMK A01 T10711122  RH  067%=      5-min Rain = 0
KBY1 011252Z 29007KT M07/M12 A3036 RMK A01 T10711122  RH  067%=      5-min Rain = 0
KBY1 011253Z 29006KT M07/M12 A3036 RMK A01 T10701122  RH  067%=      5-min Rain = 0
KBY1 011254Z 29006KT M07/M12 A3036 RMK A01 T10691121  RH  067%=      5-min Rain = 0
KBY1 011255Z 29006KT M07/M12 A3036 RMK A01 T10701122  RH  066%=      5-min Rain = 0
KBY1 011256Z 29006KT M07/M12 A3036 RMK A01 T10701123  RH  066%=      5-min Rain = 0
KBY1 011257Z 29005KT M07/M12 A3036 RMK A01 T10691122  RH  066%=      5-min Rain = 0
KBY1 011258Z 29004KT M07/M12 A3036 RMK A01 T10691122  RH  066%=      5-min Rain = 0
KBY1 011259Z 29005KT M07/M12 A3036 RMK A01 T10701122  RH  066%=      5-min Rain = 0
KBY1 011300Z 29007KT M07/M12 A3036 RMK A01 T10701122  RH  066%=      5-min Rain = 0
KBY1 011301Z 30007KT M07/M12 A3036 RMK A01 T10691122  RH  066%=      5-min Rain = 0
KBY1 011302Z 30008KT M07/M12 A3036 RMK A01 T10701122  RH  066%=      5-min Rain = 0
KBY1 011303Z 29008KT M07/M12 A3036 RMK A01 T10701122  RH  066%=      5-min Rain = 0
KBY1 011304Z 30008KT M07/M12 A3036 RMK A01 T10691122  RH  066%=      5-min Rain = 0
KBY1 011305Z 30008KT M07/M12 A3036 RMK A01 T10691122  RH  066%=      5-min Rain = 0
KBY1 011306Z 30007KT M07/M12 A3036 RMK A01 T10701122  RH  066%=      5-min Rain = 0
KBY1 011307Z 30007KT M07/M12 A3036 RMK A01 T10711122  RH  067%=      5-min Rain = 0
KBY1 011308Z 30006KT M07/M12 A3036 RMK A01 T10711122  RH  067%=      5-min Rain = 0
KBY1 011309Z 30006KT M07/M12 A3036 RMK A01 T10721123  RH  067%=      5-min Rain = 0
KBY1 011310Z 28006KT M07/M12 A3036 RMK A01 T10721123  RH  067%=      5-min Rain = 0
KBY1 011311Z 29005KT M07/M12 A3036 RMK A01 T10721122  RH  067%=      5-min Rain = 0
KBY1 011312Z 29006KT M07/M12 A3036 RMK A01 T10721123  RH  067%=      5-min Rain = 0
KBY1 011313Z 29006KT M07/M12 A3036 RMK A01 T10721123  RH  067%=      5-min Rain = 0
KBY1 011314Z 29006KT M07/M12 A3036 RMK A01 T10721122  RH  067%=      5-min Rain = 0
KBY1 011315Z 29006KT M07/M12 A3036 RMK A01 T10731123  RH  067%=      5-min Rain = 0
KBY1 011316Z 29007KT M07/M12 A3036 RMK A01 T10731123  RH  068%=      5-min Rain = 0
KBY1 011317Z 29006KT M07/M12 A3036 RMK A01 T10731123  RH  068%=      5-min Rain = 0
KBY1 011318Z 29006KT M07/M12 A3036 RMK A01 T10731123  RH  068%=      5-min Rain = 0
KBY1 011319Z 28007KT M07/M12 A3037 RMK A01 T10731123  RH  068%=      5-min Rain = 0
KBY1 011320Z 28006KT M07/M12 A3037 RMK A01 T10731122  RH  068%=      5-min Rain = 0
KBY1 011321Z 29007KT M07/M12 A3037 RMK A01 T10721122  RH  067%=      5-min Rain = 0
KBY1 011322Z 28005KT M07/M12 A3037 RMK A01 T10721123  RH  067%=      5-min Rain = 0
KBY1 011323Z 29006KT M07/M12 A3037 RMK A01 T10721123  RH  067%=      5-min Rain = 0
KBY1 011324Z 29006KT M07/M12 A3037 RMK A01 T10721122  RH  067%=      5-min Rain = 0
KBY1 011325Z 29007KT M07/M12 A3037 RMK A01 T10721123  RH  067%=      5-min Rain = 0
KBY1 011326Z 29007KT M07/M12 A3037 RMK A01 T10721123  RH  067%=      5-min Rain = 0
KBY1 011327Z 29006KT M07/M12 A3037 RMK A01 T10721122  RH  067%=      5-min Rain = 0
KBY1 011328Z 29007KT M07/M12 A3037 RMK A01 T10731123  RH  067%=      5-min Rain = 0
KBY1 011329Z 29005KT M07/M12 A3037 RMK A01 T10731123  RH  067%=      5-min Rain = 0
KBY1 011330Z 28005KT M07/M12 A3037 RMK A01 T10731123  RH  067%=      5-min Rain = 0
KBY1 011331Z 28005KT M07/M12 A3037 RMK A01 T10731123  RH  067%=      5-min Rain = 0
KBY1 011332Z 28004KT M07/M12 A3038 RMK A01 T10731123  RH  067%=      5-min Rain = 0
KBY1 011333Z 29004KT M07/M12 A3038 RMK A01 T10731123  RH  067%=      5-min Rain = 0
KBY1 011334Z 28004KT M07/M12 A3038 RMK A01 T10731123  RH  067%=      5-min Rain = 0
KBY1 011335Z 28004KT M07/M12 A3038 RMK A01 T10731123  RH  067%=      5-min Rain = 0
KBY1 011336Z 28003KT M07/M12 A3038 RMK A01 T10731123  RH  068%=      5-min Rain = 0
KBY1 011337Z 27003KT M07/M12 A3038 RMK A01 T10731123  RH  068%=      5-min Rain = 0
KBY1 011338Z 27006KT M07/M12 A3038 RMK A01 T10731123  RH  068%=      5-min Rain = 0
KBY1 011339Z 27004KT M07/M12 A3038 RMK A01 T10721122  RH  068%=      5-min Rain = 0
KBY1 011340Z 27005KT M07/M12 A3038 RMK A01 T10721122  RH  068%=      5-min Rain = 0
KBY1 011341Z 27005KT M07/M12 A3038 RMK A01 T10721123  RH  067%=      5-min Rain = 0
KBY1 011342Z 27006KT M07/M12 A3038 RMK A01 T10721123  RH  067%=      5-min Rain = 0
KBY1 011343Z 27005KT M07/M12 A3038 RMK A01 T10721122  RH  067%=      5-min Rain = 0
KBY1 011344Z 28004KT M07/M12 A3038 RMK A01 T10721123  RH  067%=      5-min Rain = 0
KBY1 011345Z 29003KT M07/M12 A3038 RMK A01 T10731123  RH  067%=      5-min Rain = 0
KBY1 011346Z 29004KT M07/M12 A3038 RMK A01 T10721122  RH  067%=      5-min Rain = 0
KBY1 011347Z 30003KT M07/M12 A3038 RMK A01 T10721122  RH  067%=      5-min Rain = 0
KBY1 011348Z 29004KT M07/M12 A3038 RMK A01 T10721123  RH  067%=      5-min Rain = 0
KBY1 011349Z 28004KT M07/M12 A3038 RMK A01 T10731123  RH  067%=      5-min Rain = 0
KBY1 011350Z 28004KT M07/M12 A3038 RMK A01 T10731123  RH  067%=      5-min Rain = 0
KBY1 011351Z 29007KT M07/M12 A3038 RMK A01 T10731123  RH  067%=      5-min Rain = 0
KBY1 011352Z 29007KT M07/M12 A3038 RMK A01 T10731123  RH  067%=      5-min Rain = 0
KBY1 011353Z 29006KT M07/M12 A3038 RMK A01 T10731123  RH  068%=      5-min Rain = 0
KBY1 011354Z 30006KT M07/M12 A3038 RMK A01 T10731123  RH  067%=      5-min Rain = 0
KBY1 011355Z 29006KT M07/M12 A3038 RMK A01 T10721123  RH  067%=      5-min Rain = 0
KBY1 011356Z 29007KT M07/M12 A3038 RMK A01 T10711122  RH  067%=      5-min Rain = 0
KBY1 011357Z 30007KT M07/M12 A3038 RMK A01 T10711122  RH  067%=      5-min Rain = 0
KBY1 011358Z 30007KT M07/M12 A3038 RMK A01 T10711122  RH  067%=      5-min Rain = 0
KBY1 011359Z 30008KT M07/M12 A3038 RMK A01 T10701122  RH  067%=      5-min Rain = 0
KBY1 011400Z 30007KT M07/M12 A3038 RMK A01 T10701122  RH  067%=      5-min Rain = 0
KBY1 011401Z 30006KT M07/M12 A3038 RMK A01 T10711122  RH  067%=      5-min Rain = 0
KBY1 011402Z 30007KT M07/M12 A3038 RMK A01 T10701121  RH  067%=      5-min Rain = 0
KBY1 011403Z 29007KT M07/M12 A3038 RMK A01 T10701121  RH  067%=      5-min Rain = 0
KBY1 011404Z 30007KT M07/M12 A3038 RMK A01 T10701122  RH  067%=      5-min Rain = 0
KBY1 011405Z 29006KT M07/M12 A3038 RMK A01 T10701122  RH  067%=      5-min Rain = 0
KBY1 011406Z 29006KT M07/M12 A3038 RMK A01 T10701122  RH  066%=      5-min Rain = 0
KBY1 011407Z 29007KT M07/M12 A3038 RMK A01 T10701122  RH  066%=      5-min Rain = 0
KBY1 011408Z 30007KT M07/M12 A3038 RMK A01 T10701122  RH  066%=      5-min Rain = 0
KBY1 011409Z 29007KT M07/M12 A3038 RMK A01 T10691121  RH  066%=      5-min Rain = 0
KBY1 011410Z 30007KT M07/M12 A3038 RMK A01 T10691122  RH  066%=      5-min Rain = 0
KBY1 011411Z 29008KT M07/M12 A3038 RMK A01 T10691121  RH  066%=      5-min Rain = 0
KBY1 011412Z 29007KT M07/M12 A3038 RMK A01 T10681120  RH  066%=      5-min Rain = 0
KBY1 011413Z 29007KT M07/M12 A3038 RMK A01 T10671120  RH  066%=      5-min Rain = 0
KBY1 011414Z 29008KT M07/M12 A3039 RMK A01 T10661120  RH  066%=      5-min Rain = 0
KBY1 011415Z 30007KT M07/M12 A3039 RMK A01 T10651120  RH  065%=      5-min Rain = 0
KBY1 011416Z 29007KT M07/M12 A3039 RMK A01 T10651120  RH  065%=      5-min Rain = 0
KBY1 011417Z 29006KT M07/M12 A3039 RMK A01 T10651120  RH  065%=      5-min Rain = 0
KBY1 011418Z 29007KT M06/M12 A3039 RMK A01 T10641119  RH  065%=      5-min Rain = 0
KBY1 011419Z 29007KT M06/M12 A3039 RMK A01 T10631119  RH  065%=      5-min Rain = 0
KBY1 011420Z 29007KT M06/M12 A3039 RMK A01 T10621118  RH  065%=      5-min Rain = 0
KBY1 011421Z 29006KT M06/M12 A3039 RMK A01 T10611118  RH  064%=      5-min Rain = 0
KBY1 011422Z 29007KT M06/M12 A3039 RMK A01 T10611118  RH  064%=      5-min Rain = 0
KBY1 011423Z 29009KT M06/M12 A3039 RMK A01 T10611118  RH  064%=      5-min Rain = 0
KBY1 011424Z 29009KT M06/M12 A3039 RMK A01 T10601118  RH  064%=      5-min Rain = 0
KBY1 011425Z 29008KT M06/M12 A3039 RMK A01 T10591118  RH  063%=      5-min Rain = 0
KBY1 011426Z 29007KT M06/M12 A3039 RMK A01 T10591117  RH  063%=      5-min Rain = 0
KBY1 011427Z 28006KT M06/M12 A3039 RMK A01 T10571116  RH  063%=      5-min Rain = 0
KBY1 011428Z 28005KT M06/M12 A3039 RMK A01 T10551116  RH  062%=      5-min Rain = 0
KBY1 011429Z 28007KT M05/M12 A3039 RMK A01 T10541115  RH  062%=      5-min Rain = 0
KBY1 011430Z 27008KT M05/M12 A3039 RMK A01 T10531115  RH  062%=      5-min Rain = 0
KBY1 011431Z 28006KT M05/M12 A3039 RMK A01 T10531115  RH  062%=      5-min Rain = 0
KBY1 011432Z 27008KT M05/M12 A3039 RMK A01 T10521115  RH  061%=      5-min Rain = 0
KBY1 011433Z 27008KT M05/M12 A304 RMK A01 T10531116  RH  061%=      5-min Rain = 0
KBY1 011434Z 27008KT M05/M12 A304 RMK A01 T10531116  RH  061%=      5-min Rain = 0
KBY1 011435Z 28007KT M05/M12 A304 RMK A01 T10511116  RH  061%=      5-min Rain = 0
KBY1 011436Z 29009KT M05/M12 A304 RMK A01 T10511115  RH  061%=      5-min Rain = 0
KBY1 011437Z 29008KT M05/M12 A304 RMK A01 T10501115  RH  060%=      5-min Rain = 0
KBY1 011438Z 29007KT M05/M12 A304 RMK A01 T10491115  RH  060%=      5-min Rain = 0
KBY1 011439Z 29009KT M05/M11 A304 RMK A01 T10481114  RH  060%=      5-min Rain = 0
KBY1 011440Z 29008KT M05/M11 A304 RMK A01 T10481114  RH  060%=      5-min Rain = 0
KBY1 011441Z 28006KT M05/M11 A304 RMK A01 T10481114  RH  060%=      5-min Rain = 0
KBY1 011442Z 29009KT M05/M11 A304 RMK A01 T10451112  RH  060%=      5-min Rain = 0
KBY1 011443Z 29008KT M05/M11 A304 RMK A01 T10451113  RH  059%=      5-min Rain = 0
KBY1 011444Z 29009KT M05/M11 A304 RMK A01 T10451114  RH  059%=      5-min Rain = 0
KBY1 011445Z 28008KT M05/M11 A304 RMK A01 T10451114  RH  059%=      5-min Rain = 0
KBY1 011446Z 29005KT M05/M11 A304 RMK A01 T10451114  RH  059%=      5-min Rain = 0
KBY1 011447Z 29007KT M04/M11 A304 RMK A01 T10431112  RH  059%=      5-min Rain = 0
KBY1 011448Z 28007KT M04/M11 A304 RMK A01 T10421113  RH  058%=      5-min Rain = 0
KBY1 011449Z 28007KT M04/M11 A304 RMK A01 T10411112  RH  058%=      5-min Rain = 0
KBY1 011450Z 29009KT M04/M11 A304 RMK A01 T10411112  RH  058%=      5-min Rain = 0
KBY1 011451Z 28008KT M04/M11 A304 RMK A01 T10401112  RH  057%=      5-min Rain = 0
KBY1 011452Z 27008KT M04/M11 A304 RMK A01 T10401112  RH  057%=      5-min Rain = 0
KBY1 011453Z 27009KT M04/M11 A3041 RMK A01 T10411113  RH  057%=      5-min Rain = 0
KBY1 011454Z 27008KT M04/M11 A3041 RMK A01 T10411113  RH  057%=      5-min Rain = 0
KBY1 011455Z 28008KT M04/M11 A3041 RMK A01 T10401112  RH  057%=      5-min Rain = 0
KBY1 011456Z 28007KT M04/M11 A3041 RMK A01 T10391112  RH  057%=      5-min Rain = 0
KBY1 011457Z 29007KT M04/M11 A3041 RMK A01 T10391112  RH  057%=      5-min Rain = 0
KBY1 011458Z 28006KT M04/M11 A3041 RMK A01 T10381111  RH  057%=      5-min Rain = 0
KBY1 011459Z 28007KT M04/M11 A3041 RMK A01 T10361110  RH  057%=      5-min Rain = 0
KBY1 011500Z 27006KT M04/M11 A3041 RMK A01 T10351110  RH  056%=      5-min Rain = 0
KBY1 011501Z 28005KT M03/M11 A3041 RMK A01 T10341109  RH  056%=      5-min Rain = 0
KBY1 011502Z 28006KT M03/M11 A3041 RMK A01 T10321108  RH  056%=      5-min Rain = 0
KBY1 011503Z 27007KT M03/M11 A3041 RMK A01 T10301109  RH  055%=      5-min Rain = 0
KBY1 011504Z 28006KT M03/M11 A3041 RMK A01 T10301109  RH  054%=      5-min Rain = 0
KBY1 011505Z 27007KT M03/M11 A3041 RMK A01 T10301109  RH  054%=      5-min Rain = 0
KBY1 011506Z 28006KT M03/M11 A3041 RMK A01 T10291108  RH  054%=      5-min Rain = 0
KBY1 011507Z 28007KT M03/M11 A3041 RMK A01 T10281108  RH  054%=      5-min Rain = 0
KBY1 011508Z 27007KT M03/M11 A3041 RMK A01 T10281109  RH  053%=      5-min Rain = 0
KBY1 011509Z 26007KT M03/M11 A3041 RMK A01 T10271108  RH  053%=      5-min Rain = 0
KBY1 011510Z 28006KT M03/M11 A3041 RMK A01 T10261109  RH  053%=      5-min Rain = 0
KBY1 011511Z 29006KT M03/M11 A3041 RMK A01 T10261108  RH  053%=      5-min Rain = 0
KBY1 011512Z 30007KT M02/M11 A3041 RMK A01 T10241108  RH  053%=      5-min Rain = 0
KBY1 011513Z 29007KT M02/M11 A3041 RMK A01 T10241108  RH  052%=      5-min Rain = 0
KBY1 011514Z 29007KT M02/M11 A3041 RMK A01 T10221107  RH  052%=      5-min Rain = 0
KBY1 011515Z 29006KT M02/M11 A3041 RMK A01 T10211108  RH  052%=      5-min Rain = 0
KBY1 011516Z 27006KT M02/M11 A3041 RMK A01 T10201106  RH  052%=      5-min Rain = 0
KBY1 011517Z 28006KT M02/M11 A3041 RMK A01 T10171105  RH  051%=      5-min Rain = 0
KBY1 011518Z 27007KT M02/M11 A3041 RMK A01 T10161106  RH  050%=      5-min Rain = 0
KBY1 011519Z 26006KT M02/M11 A3041 RMK A01 T10161107  RH  050%=      5-min Rain = 0
KBY1 011520Z 26007KT M02/M11 A3041 RMK A01 T10161107  RH  050%=      5-min Rain = 0
KBY1 011521Z 27007KT M02/M11 A3042 RMK A01 T10151105  RH  050%=      5-min Rain = 0
KBY1 011522Z 26005KT M01/M11 A3042 RMK A01 T10141106  RH  050%=      5-min Rain = 0
KBY1 011523Z 27006KT M01/M10 A3042 RMK A01 T10121103  RH  050%=      5-min Rain = 0
KBY1 011524Z 26004KT M01/M11 A3042 RMK A01 T10111105  RH  049%=      5-min Rain = 0
KBY1 011525Z 27006KT M01/M10 A3042 RMK A01 T10101104  RH  049%=      5-min Rain = 0
KBY1 011526Z 25005KT M01/M11 A3042 RMK A01 T10091105  RH  048%=      5-min Rain = 0
KBY1 011527Z 25006KT M01/M11 A3042 RMK A01 T10091105  RH  048%=      5-min Rain = 0
KBY1 011528Z 26005KT M01/M10 A3042 RMK A01 T10071104  RH  048%=      5-min Rain = 0
KBY1 011529Z 26006KT M01/M10 A3042 RMK A01 T10061104  RH  047%=      5-min Rain = 0
KBY1 011530Z 26006KT M01/M11 A3042 RMK A01 T10061105  RH  047%=      5-min Rain = 0
KBY1 011531Z 25005KT M01/M10 A3042 RMK A01 T10051104  RH  047%=      5-min Rain = 0
KBY1 011532Z 26004KT M01/M10 A3042 RMK A01 T10051104  RH  047%=      5-min Rain = 0
KBY1 011533Z 26004KT M00/M10 A3042 RMK A01 T10041103  RH  047%=      5-min Rain = 0
KBY1 011534Z 27005KT M00/M10 A3042 RMK A01 T10011102  RH  047%=      5-min Rain = 0
KBY1 011535Z 25006KT 00/10 A3042 RMK A01 T00000-101  RH  046%=      5-min Rain = 0
KBY1 011536Z 24006KT 00/10 A3042 RMK A01 T00000-102  RH  046%=      5-min Rain = 0
KBY1 011537Z 24007KT 00/10 A3042 RMK A01 T00000-103  RH  046%=      5-min Rain = 0
KBY1 011538Z 24006KT 00/10 A3042 RMK A01 T00000-103  RH  046%=      5-min Rain = 0
KBY1 011539Z 24007KT 00/M10 A3042 RMK A01 T00011102  RH  046%=      5-min Rain = 0
KBY1 011540Z 25006KT 00/M10 A3042 RMK A01 T00021102  RH  046%=      5-min Rain = 0
KBY1 011541Z 24005KT 00/M10 A3042 RMK A01 T00021102  RH  046%=      5-min Rain = 0
KBY1 011542Z 25006KT 00/M10 A3042 RMK A01 T00031101  RH  046%=      5-min Rain = 0
KBY1 011543Z 26006KT 01/M10 A3042 RMK A01 T00051100  RH  045%=      5-min Rain = 0
KBY1 011544Z 25006KT 01/M10 A3042 RMK A01 T00051101  RH  045%=      5-min Rain = 0
KBY1 011545Z 26006KT 01/M10 A3042 RMK A01 T00051101  RH  045%=      5-min Rain = 0
KBY1 011546Z 26007KT 01/M10 A3042 RMK A01 T00061101  RH  044%=      5-min Rain = 0
KBY1 011547Z 26005KT 01/M10 A3042 RMK A01 T00061102  RH  044%=      5-min Rain = 0
KBY1 011548Z 25007KT 01/M10 A3041 RMK A01 T00081100  RH  044%=      5-min Rain = 0
KBY1 011549Z 25007KT 01/M10 A3042 RMK A01 T00091100  RH  044%=      5-min Rain = 0
KBY1 011550Z 26007KT 01/M10 A3042 RMK A01 T00111099  RH  044%=      5-min Rain = 0
KBY1 011551Z 26007KT 01/M10 A3042 RMK A01 T00121098  RH  044%=      5-min Rain = 0
KBY1 011552Z 27007KT 01/M10 A3042 RMK A01 T00131099  RH  043%=      5-min Rain = 0
KBY1 011553Z 26007KT 01/M10 A3042 RMK A01 T00131100  RH  043%=      5-min Rain = 0
KBY1 011554Z 26007KT 01/M10 A3042 RMK A01 T00141099  RH  043%=      5-min Rain = 0
KBY1 011555Z 26005KT 01/M10 A3042 RMK A01 T00141098  RH  043%=      5-min Rain = 0
KBY1 011556Z 27006KT 02/M10 A3042 RMK A01 T00171097  RH  043%=      5-min Rain = 0
KBY1 011557Z 25008KT 02/M10 A3042 RMK A01 T00181098  RH  042%=      5-min Rain = 0
KBY1 011558Z 27007KT 02/M10 A3042 RMK A01 T00181098  RH  042%=      5-min Rain = 0
KBY1 011559Z 26009KT 02/M10 A3042 RMK A01 T00181099  RH  042%=      5-min Rain = 0
KBY1 011600Z 27008KT 02/M10 A3042 RMK A01 T00181099  RH  042%=      5-min Rain = 0
KBY1 011601Z 25007KT 02/M10 A3042 RMK A01 T00181099  RH  042%=      5-min Rain = 0
KBY1 011602Z 26007KT 02/M10 A3042 RMK A01 T00201097  RH  042%=      5-min Rain = 0
KBY1 011603Z 27008KT 02/M10 A3042 RMK A01 T00211097  RH  041%=      5-min Rain = 0
KBY1 011604Z 27006KT 02/M10 A3042 RMK A01 T00211098  RH  041%=      5-min Rain = 0
KBY1 011605Z 25006KT 02/M10 A3042 RMK A01 T00221097  RH  041%=      5-min Rain = 0
KBY1 011606Z 26008KT 02/M10 A3042 RMK A01 T00241097  RH  041%=      5-min Rain = 0
KBY1 011607Z 27006KT 02/M10 A3042 RMK A01 T00241097  RH  040%=      5-min Rain = 0
KBY1 011608Z 26008KT 03/M10 A3042 RMK A01 T00261096  RH  040%=      5-min Rain = 0
KBY1 011609Z 25009KT 03/M10 A3042 RMK A01 T00261097  RH  040%=      5-min Rain = 0
KBY1 011610Z 25009KT 03/M10 A3043 RMK A01 T00261097  RH  040%=      5-min Rain = 0
KBY1 011611Z 25007KT 03/M10 A3043 RMK A01 T00251097  RH  040%=      5-min Rain = 0
KBY1 011612Z 25009KT 03/M10 A3042 RMK A01 T00251096  RH  040%=      5-min Rain = 0
KBY1 011613Z 24007KT 03/M10 A3042 RMK A01 T00261096  RH  040%=      5-min Rain = 0
KBY1 011614Z 25008KT 03/M09 A3043 RMK A01 T00291094  RH  040%=      5-min Rain = 0
KBY1 011615Z 25008KT 03/M10 A3043 RMK A01 T00301095  RH  039%=      5-min Rain = 0
KBY1 011616Z 24008KT 03/M10 A3043 RMK A01 T00301096  RH  039%=      5-min Rain = 0
KBY1 011617Z 24009KT 03/M10 A3043 RMK A01 T00291096  RH  039%=      5-min Rain = 0
KBY1 011618Z 24008KT 03/M10 A3043 RMK A01 T00301095  RH  039%=      5-min Rain = 0
KBY1 011619Z 25009KT 03/M10 A3042 RMK A01 T00321095  RH  039%=      5-min Rain = 0
KBY1 011620Z 25007KT 03/M10 A3042 RMK A01 T00321095  RH  039%=      5-min Rain = 0
KBY1 011621Z 25009KT 03/M09 A3042 RMK A01 T00331094  RH  039%=      5-min Rain = 0
KBY1 011622Z 24008KT 03/M10 A3042 RMK A01 T00331095  RH  039%=      5-min Rain = 0
KBY1 011623Z 25007KT 04/M09 A3042 RMK A01 T00351093  RH  039%=      5-min Rain = 0
KBY1 011624Z 27007KT 04/M09 A3042 RMK A01 T00371093  RH  038%=      5-min Rain = 0
KBY1 011625Z 26007KT 04/M09 A3043 RMK A01 T00381092  RH  038%=      5-min Rain = 0
KBY1 011626Z 26008KT 04/M09 A3043 RMK A01 T00391093  RH  038%=      5-min Rain = 0
KBY1 011627Z 26008KT 04/M09 A3043 RMK A01 T00391093  RH  037%=      5-min Rain = 0
KBY1 011628Z 26009KT 04/M09 A3043 RMK A01 T00381093  RH  038%=      5-min Rain = 0
KBY1 011629Z 26009KT 04/M09 A3043 RMK A01 T00381094  RH  038%=      5-min Rain = 0
KBY1 011630Z 25006KT 04/M09 A3043 RMK A01 T00371094  RH  038%=      5-min Rain = 0
KBY1 011631Z 24007KT 04/M09 A3043 RMK A01 T00381092  RH  038%=      5-min Rain = 0
KBY1 011632Z 25008KT 04/M09 A3043 RMK A01 T00391092  RH  038%=      5-min Rain = 0
KBY1 011633Z 25009KT 04/M09 A3043 RMK A01 T00411092  RH  037%=      5-min Rain = 0
KBY1 011634Z 25009KT 04/M09 A3043 RMK A01 T00411092  RH  037%=      5-min Rain = 0
KBY1 011635Z 25007KT 04/M09 A3043 RMK A01 T00411092  RH  037%=      5-min Rain = 0
KBY1 011636Z 26007KT 04/M09 A3043 RMK A01 T00421092  RH  037%=      5-min Rain = 0
KBY1 011637Z 26008KT 04/M09 A3043 RMK A01 T00431091  RH  037%=      5-min Rain = 0
KBY1 011638Z 26006G11KT 04/M09 A3043 RMK A01 T00441091  RH  037%=      5-min Rain = 0
KBY1 011639Z 27009KT 05/M09 A3043 RMK A01 T00471090  RH  036%=      5-min Rain = 0
KBY1 011640Z 27007KT 05/M09 A3043 RMK A01 T00471091  RH  036%=      5-min Rain = 0
KBY1 011641Z 28007KT 05/M09 A3043 RMK A01 T00481090  RH  036%=      5-min Rain = 0
KBY1 011642Z 28006KT 05/M09 A3043 RMK A01 T00481091  RH  036%=      5-min Rain = 0
KBY1 011643Z 27007KT 05/M09 A3043 RMK A01 T00481091  RH  036%=      5-min Rain = 0
KBY1 011644Z 25008KT 05/M09 A3043 RMK A01 T00491090  RH  036%=      5-min Rain = 0
KBY1 011645Z 28007KT 05/M09 A3043 RMK A01 T00481092  RH  036%=      5-min Rain = 0
KBY1 011646Z 28007KT 05/M09 A3043 RMK A01 T00491090  RH  036%=      5-min Rain = 0
KBY1 011647Z 27007KT 05/M09 A3043 RMK A01 T00501090  RH  036%=      5-min Rain = 0
KBY1 011648Z 27010KT 05/M09 A3043 RMK A01 T00501091  RH  035%=      5-min Rain = 0
KBY1 011649Z 27009KT 05/M09 A3043 RMK A01 T00501091  RH  035%=      5-min Rain = 0
KBY1 011650Z 26009KT 05/M09 A3043 RMK A01 T00491091  RH  036%=      5-min Rain = 0
KBY1 011651Z 26008KT 05/M09 A3043 RMK A01 T00491092  RH  035%=      5-min Rain = 0
KBY1 011652Z 29009KT 05/M09 A3043 RMK A01 T00471092  RH  036%=      5-min Rain = 0
KBY1 011653Z 29008KT 05/M09 A3043 RMK A01 T00481091  RH  036%=      5-min Rain = 0
KBY1 011654Z 27007KT 05/M09 A3043 RMK A01 T00501090  RH  036%=      5-min Rain = 0
KBY1 011655Z 25006KT 05/M09 A3043 RMK A01 T00541088  RH  035%=      5-min Rain = 0
KBY1 011656Z 27007KT 06/M09 A3043 RMK A01 T00551089  RH  035%=      5-min Rain = 0
KBY1 011657Z 27007KT 05/M09 A3043 RMK A01 T00541091  RH  034%=      5-min Rain = 0
KBY1 011658Z 27008KT 06/M09 A3042 RMK A01 T00551089  RH  035%=      5-min Rain = 0
KBY1 011659Z 28006KT 06/M09 A3043 RMK A01 T00571088  RH  034%=      5-min Rain = 0
KBY1 011700Z 29006KT 06/M09 A3043 RMK A01 T00591089  RH  034%=      5-min Rain = 0
KBY1 011701Z 27005KT 06/M09 A3042 RMK A01 T00571091  RH  034%=      5-min Rain = 0
KBY1 011702Z 27007KT 06/M09 A3042 RMK A01 T00561091  RH  034%=      5-min Rain = 0
KBY1 011703Z 26010KT 06/M09 A3042 RMK A01 T00561089  RH  034%=      5-min Rain = 0
KBY1 011704Z 26007KT 06/M09 A3042 RMK A01 T00571090  RH  034%=      5-min Rain = 0
KBY1 011705Z 29007KT 06/M09 A3042 RMK A01 T00571090  RH  034%=      5-min Rain = 0
KBY1 011706Z 28007KT 06/M09 A3042 RMK A01 T00581090  RH  034%=      5-min Rain = 0
KBY1 011707Z 27007KT 06/M09 A3042 RMK A01 T00581090  RH  034%=      5-min Rain = 0
KBY1 011708Z 26009KT 06/M09 A3042 RMK A01 T00581089  RH  034%=      5-min Rain = 0
KBY1 011709Z 25008KT 06/M09 A3042 RMK A01 T00611088  RH  033%=      5-min Rain = 0
KBY1 011710Z 27009KT 06/M09 A3042 RMK A01 T00611090  RH  033%=      5-min Rain = 0
KBY1 011711Z 29008KT 06/M09 A3042 RMK A01 T00611091  RH  033%=      5-min Rain = 0
KBY1 011712Z 30005KT 06/M09 A3042 RMK A01 T00611091  RH  033%=      5-min Rain = 0
KBY1 011713Z 29004KT 06/M09 A3042 RMK A01 T00621091  RH  033%=      5-min Rain = 0
KBY1 011714Z 30004KT 06/M09 A3042 RMK A01 T00621091  RH  032%=      5-min Rain = 0
KBY1 011715Z 29007KT 06/M09 A3042 RMK A01 T00641089  RH  033%=      5-min Rain = 0
KBY1 011716Z 29008KT 07/M09 A3042 RMK A01 T00671089  RH  032%=      5-min Rain = 0
KBY1 011717Z 27006KT 07/M09 A3042 RMK A01 T00661091  RH  032%=      5-min Rain = 0
KBY1 011718Z 29004KT 07/M09 A3042 RMK A01 T00651092  RH  032%=      5-min Rain = 0
KBY1 011719Z 28003KT 07/M09 A3042 RMK A01 T00661089  RH  032%=      5-min Rain = 0
KBY1 011720Z 29006KT 07/M09 A3042 RMK A01 T00681089  RH  032%=      5-min Rain = 0
KBY1 011721Z 28006KT 07/M09 A3042 RMK A01 T00691090  RH  031%=      5-min Rain = 0
KBY1 011722Z 30005KT 07/M09 A3042 RMK A01 T00701090  RH  031%=      5-min Rain = 0
KBY1 011723Z 27005KT 07/M09 A3042 RMK A01 T00701090  RH  031%=      5-min Rain = 0
KBY1 011724Z 27005KT 07/M09 A3042 RMK A01 T00691092  RH  031%=      5-min Rain = 0
KBY1 011725Z 27003KT 07/M09 A3042 RMK A01 T00671091  RH  031%=      5-min Rain = 0
KBY1 011726Z 31008KT 07/M09 A3042 RMK A01 T00691090  RH  031%=      5-min Rain = 0
KBY1 011727Z 31006KT 07/M09 A3042 RMK A01 T00691093  RH  030%=      5-min Rain = 0
KBY1 011728Z 30004KT 07/M10 A3042 RMK A01 T00681095  RH  030%=      5-min Rain = 0
KBY1 011729Z 30006KT 07/M10 A3042 RMK A01 T00661095  RH  030%=      5-min Rain = 0
KBY1 011730Z 28007KT 07/M09 A3042 RMK A01 T00691093  RH  030%=      5-min Rain = 0
KBY1 011731Z 29009KT 07/M10 A3042 RMK A01 T00701095  RH  030%=      5-min Rain = 0
KBY1 011732Z 29006KT 07/M09 A3042 RMK A01 T00711094  RH  030%=      5-min Rain = 0
KBY1 011733Z 29006KT 07/M09 A3042 RMK A01 T00721094  RH  030%=      5-min Rain = 0
KBY1 011734Z 29007KT 07/M09 A3042 RMK A01 T00711094  RH  030%=      5-min Rain = 0
KBY1 011735Z 33004KT 07/M10 A3042 RMK A01 T00711095  RH  030%=      5-min Rain = 0
KBY1 011736Z 28004KT 07/M09 A3042 RMK A01 T00721094  RH  030%=      5-min Rain = 0
KBY1 011737Z 27007KT 08/M09 A3042 RMK A01 T00751092  RH  029%=      5-min Rain = 0
KBY1 011738Z 29008KT 08/M09 A3042 RMK A01 T00751094  RH  029%=      5-min Rain = 0
KBY1 011739Z 29007KT 08/M10 A3042 RMK A01 T00751096  RH  029%=      5-min Rain = 0
KBY1 011740Z 26004KT 07/M10 A3042 RMK A01 T00741097  RH  029%=      5-min Rain = 0
KBY1 011741Z 23003KT 07/M10 A3042 RMK A01 T00741099  RH  028%=      5-min Rain = 0
KBY1 011742Z 19001KT 07/M10 A3042 RMK A01 T00731099  RH  028%=      5-min Rain = 0
KBY1 011743Z 29001KT 07/M10 A3042 RMK A01 T00741097  RH  029%=      5-min Rain = 0
KBY1 011744Z 33005KT 08/M09 A3042 RMK A01 T00771094  RH  029%=      5-min Rain = 0
KBY1 011745Z 33008KT 08/M10 A3042 RMK A01 T00791096  RH  028%=      5-min Rain = 0
KBY1 011746Z 34006KT 08/M10 A3042 RMK A01 T00791098  RH  027%=      5-min Rain = 0
KBY1 011747Z 32004KT 08/M10 A3042 RMK A01 T00781099  RH  027%=      5-min Rain = 0
KBY1 011748Z 31002KT 08/M10 A3042 RMK A01 T00801099  RH  027%=      5-min Rain = 0
KBY1 011749Z 21002KT 08/M10 A3042 RMK A01 T00801100  RH  027%=      5-min Rain = 0
KBY1 011750Z 23002KT 08/M10 A3042 RMK A01 T00811099  RH  027%=      5-min Rain = 0
KBY1 011751Z 27009G17KT 08/M10 A3042 RMK A01 T00801100  RH  027%=      5-min Rain = 0
KBY1 011752Z 30009KT 08/M10 A3042 RMK A01 T00821097  RH  027%=      5-min Rain = 0
KBY1 011753Z 31008KT 09/M10 A3042 RMK A01 T00851097  RH  027%=      5-min Rain = 0
KBY1 011754Z 28008KT 09/M10 A3042 RMK A01 T00861098  RH  026%=      5-min Rain = 0
KBY1 011755Z 29006KT 08/M10 A3042 RMK A01 T00841101  RH  026%=      5-min Rain = 0
KBY1 011756Z 27005KT 08/M10 A3042 RMK A01 T00821101  RH  026%=      5-min Rain = 0
KBY1 011757Z 25004KT 08/M10 A3042 RMK A01 T00791102  RH  026%=      5-min Rain = 0
KBY1 011758Z 26003KT 08/M10 A3042 RMK A01 T00781102  RH  027%=      5-min Rain = 0
KBY1 011759Z 26001KT 08/M10 A3042 RMK A01 T00771101  RH  027%=      5-min Rain = 0
KBY1 011800Z 24003KT 08/M10 A3042 RMK A01 T00801097  RH  027%=      5-min Rain = 0
KBY1 011801Z 22003KT 08/M10 A3042 RMK A01 T00821099  RH  027%=      5-min Rain = 0
KBY1 011802Z 24002KT 08/M10 A3042 RMK A01 T00831098  RH  027%=      5-min Rain = 0
KBY1 011803Z 30005KT 09/M10 A3042 RMK A01 T00851099  RH  026%=      5-min Rain = 0
KBY1 011804Z 32007KT 09/M10 A3042 RMK A01 T00871099  RH  026%=      5-min Rain = 0
KBY1 011805Z 32007KT 09/M10 A3042 RMK A01 T00891101  RH  025%=      5-min Rain = 0
KBY1 011806Z 33005KT 09/M10 A3042 RMK A01 T00891103  RH  025%=      5-min Rain = 0
KBY1 011807Z 35005KT 09/M10 A3042 RMK A01 T00881104  RH  024%=      5-min Rain = 0
KBY1 011808Z 33004KT 09/M11 A3042 RMK A01 T00861105  RH  025%=      5-min Rain = 0
KBY1 011809Z 33003KT 09/M10 A3042 RMK A01 T00871103  RH  025%=      5-min Rain = 0
KBY1 011810Z 32005KT 09/M10 A3042 RMK A01 T00881102  RH  025%=      5-min Rain = 0
KBY1 011811Z 32005KT 09/M10 A3042 RMK A01 T00891104  RH  024%=      5-min Rain = 0
KBY1 011812Z 33007KT 09/M10 A3042 RMK A01 T00881104  RH  025%=      5-min Rain = 0
KBY1 011813Z 32009KT 09/M10 A3042 RMK A01 T00891102  RH  025%=      5-min Rain = 0
KBY1 011814Z 32006KT 09/M10 A3042 RMK A01 T00901102  RH  025%=      5-min Rain = 0
KBY1 011815Z 30003KT 09/M10 A3042 RMK A01 T00901103  RH  024%=      5-min Rain = 0
KBY1 011816Z 21001KT 09/M11 A3042 RMK A01 T00891105  RH  024%=      5-min Rain = 0
KBY1 011817Z 23001KT 09/M10 A3042 RMK A01 T00901102  RH  025%=      5-min Rain = 0
KBY1 011818Z 34004G9KT 09/M10 A3042 RMK A01 T00911102  RH  024%=      5-min Rain = 0
KBY1 011819Z 35003KT 09/M10 A3042 RMK A01 T00911104  RH  024%=      5-min Rain = 0
KBY1 011820Z 35004KT 09/M10 A3042 RMK A01 T00911104  RH  024%=      5-min Rain = 0
KBY1 011821Z 00002KT 09/M11 A3042 RMK A01 T00901105  RH  024%=      5-min Rain = 0
KBY1 011822Z 12001KT 09/M11 A3042 RMK A01 T00881107  RH  024%=      5-min Rain = 0
KBY1 011823Z 12003KT 09/M10 A3042 RMK A01 T00881104  RH  024%=      5-min Rain = 0
KBY1 011824Z 10003KT 09/M10 A3042 RMK A01 T00901104  RH  024%=      5-min Rain = 0
KBY1 011825Z 11003KT 09/M11 A3041 RMK A01 T00881107  RH  024%=      5-min Rain = 0
KBY1 011826Z 10002KT 09/M11 A3041 RMK A01 T00871106  RH  024%=      5-min Rain = 0
KBY1 011827Z 14001KT 09/M11 A3041 RMK A01 T00871105  RH  024%=      5-min Rain = 0
KBY1 011828Z 29001KT 09/M10 A3041 RMK A01 T00901103  RH  024%=      5-min Rain = 0
KBY1 011829Z 31004G9KT 09/M10 A3041 RMK A01 T00921103  RH  024%=      5-min Rain = 0
KBY1 011830Z 31007KT 10/M10 A3041 RMK A01 T00951103  RH  024%=      5-min Rain = 0
KBY1 011831Z 33007KT 10/M10 A3041 RMK A01 T00951104  RH  023%=      5-min Rain = 0
KBY1 011832Z 32007KT 10/M11 A3041 RMK A01 T00951105  RH  023%=      5-min Rain = 0
KBY1 011833Z 32006KT 10/M11 A3041 RMK A01 T00951106  RH  023%=      5-min Rain = 0
KBY1 011834Z 33004KT 09/M11 A3041 RMK A01 T00931108  RH  023%=      5-min Rain = 0
KBY1 011835Z 32001KT 09/M11 A3041 RMK A01 T00911110  RH  023%=      5-min Rain = 0
KBY1 011836Z 06004KT 09/M11 A3041 RMK A01 T00901108  RH  023%=      5-min Rain = 0
KBY1 011837Z 06004KT 09/M11 A3041 RMK A01 T00911107  RH  023%=      5-min Rain = 0
KBY1 011838Z 10004KT 09/M11 A3041 RMK A01 T00921107  RH  023%=      5-min Rain = 0
KBY1 011839Z 09004KT 09/M11 A3041 RMK A01 T00911108  RH  023%=      5-min Rain = 0
KBY1 011840Z 12002KT 09/M11 A3041 RMK A01 T00911108  RH  023%=      5-min Rain = 0
KBY1 011841Z 17003KT 09/M11 A3041 RMK A01 T00911107  RH  024%=      5-min Rain = 0
KBY1 011842Z 19000KT 09/M11 A3041 RMK A01 T00931106  RH  023%=      5-min Rain = 0
KBY1 011843Z 28000KT 09/M11 A3041 RMK A01 T00941108  RH  023%=      5-min Rain = 0
KBY1 011844Z 28003KT 09/M11 A3041 RMK A01 T00941108  RH  023%=      5-min Rain = 0
KBY1 011845Z 33004KT 09/M11 A3041 RMK A01 T00941108  RH  023%=      5-min Rain = 0
KBY1 011846Z 33005KT 10/M11 A3041 RMK A01 T00951107  RH  023%=      5-min Rain = 0
KBY1 011847Z 35003KT 10/M11 A3041 RMK A01 T00961107  RH  023%=      5-min Rain = 0
KBY1 011848Z 31003KT 10/M11 A304 RMK A01 T00971107  RH  023%=      5-min Rain = 0
KBY1 011849Z 30006KT 10/M11 A304 RMK A01 T00981107  RH  022%=      5-min Rain = 0
KBY1 011850Z 33008KT 10/M11 A304 RMK A01 T00991108  RH  022%=      5-min Rain = 0
KBY1 011851Z 34007KT 10/M11 A304 RMK A01 T00981111  RH  022%=      5-min Rain = 0
KBY1 011852Z 32006KT 10/M11 A304 RMK A01 T00961112  RH  022%=      5-min Rain = 0
KBY1 011853Z 32009KT 10/M11 A304 RMK A01 T00981109  RH  022%=      5-min Rain = 0
KBY1 011854Z 32011KT 10/M11 A304 RMK A01 T01001107  RH  022%=      5-min Rain = 0
KBY1 011855Z 33008KT 10/M11 A304 RMK A01 T01001110  RH  022%=      5-min Rain = 0
KBY1 011856Z 32007KT 10/M11 A304 RMK A01 T00991111  RH  022%=      5-min Rain = 0
KBY1 011857Z 33007KT 10/M11 A304 RMK A01 T00981110  RH  022%=      5-min Rain = 0
KBY1 011858Z 33006KT 10/M11 A304 RMK A01 T00971110  RH  022%=      5-min Rain = 0
KBY1 011859Z 33006KT 10/M11 A304 RMK A01 T00991107  RH  022%=      5-min Rain = 0
KBY1 011900Z 32002KT 10/M11 A304 RMK A01 T01011108  RH  022%=      5-min Rain = 0
KBY1 011901Z 29005KT 10/M11 A304 RMK A01 T01011109  RH  022%=      5-min Rain = 0
KBY1 011902Z 31006KT 10/M11 A304 RMK A01 T01011110  RH  021%=      5-min Rain = 0
KBY1 011903Z 30007KT 10/M11 A304 RMK A01 T00991111  RH  022%=      5-min Rain = 0
KBY1 011904Z 27008KT 10/M11 A304 RMK A01 T00981111  RH  022%=      5-min Rain = 0
KBY1 011905Z 25007KT 10/M11 A304 RMK A01 T00971111  RH  022%=      5-min Rain = 0
KBY1 011906Z 23005KT 10/M11 A3039 RMK A01 T00981111  RH  022%=      5-min Rain = 0
KBY1 011907Z 21003KT 10/M11 A3039 RMK A01 T00981110  RH  022%=      5-min Rain = 0
KBY1 011908Z 22001KT 10/M11 A3039 RMK A01 T00981112  RH  022%=      5-min Rain = 0
KBY1 011909Z 29002KT 10/M11 A3039 RMK A01 T00981112  RH  022%=      5-min Rain = 0
KBY1 011910Z 33007KT 10/M11 A3039 RMK A01 T01011110  RH  022%=      5-min Rain = 0
KBY1 011911Z 32009KT 10/M11 A3039 RMK A01 T01011112  RH  021%=      5-min Rain = 0
KBY1 011912Z 32005KT 10/M12 A3039 RMK A01 T01001116  RH  021%=      5-min Rain = 0
KBY1 011913Z 33001KT 10/M12 A3039 RMK A01 T00981117  RH  021%=      5-min Rain = 0
KBY1 011914Z 31004KT 10/M12 A3039 RMK A01 T00981116  RH  021%=      5-min Rain = 0
KBY1 011915Z 29003KT 10/M12 A3039 RMK A01 T01001115  RH  021%=      5-min Rain = 0
KBY1 011916Z 27002KT 10/M12 A3039 RMK A01 T01001115  RH  021%=      5-min Rain = 0
KBY1 011917Z 01003KT 10/M11 A3039 RMK A01 T01021114  RH  021%=      5-min Rain = 0
KBY1 011918Z 05002KT 10/M12 A3039 RMK A01 T01021117  RH  020%=      5-min Rain = 0
KBY1 011919Z 04006KT 10/M12 A3039 RMK A01 T01011117  RH  020%=      5-min Rain = 0
KBY1 011920Z 02008KT 10/M12 A3039 RMK A01 T01011116  RH  020%=      5-min Rain = 0
KBY1 011921Z 36006KT 10/M12 A3039 RMK A01 T01021117  RH  020%=      5-min Rain = 0
KBY1 011922Z 34004KT 10/M12 A3039 RMK A01 T01011117  RH  020%=      5-min Rain = 0
KBY1 011923Z 32003KT 10/M12 A3039 RMK A01 T01011117  RH  020%=      5-min Rain = 0
KBY1 011924Z 35005KT 10/M12 A3039 RMK A01 T01011116  RH  020%=      5-min Rain = 0
KBY1 011925Z 36003KT 10/M12 A3039 RMK A01 T01001118  RH  020%=      5-min Rain = 0
KBY1 011926Z 01005KT 10/M12 A3039 RMK A01 T01021116  RH  020%=      5-min Rain = 0
KBY1 011927Z 34005KT 10/M12 A3039 RMK A01 T01031116  RH  020%=      5-min Rain = 0
KBY1 011928Z 35007KT 10/M11 A3038 RMK A01 T01041114  RH  020%=      5-min Rain = 0
KBY1 011929Z 35006KT 11/M11 A3038 RMK A01 T01051113  RH  020%=      5-min Rain = 0
KBY1 011930Z 32010KT 11/M11 A3038 RMK A01 T01071112  RH  020%=      5-min Rain = 0
KBY1 011931Z 33008KT 11/M11 A3038 RMK A01 T01061114  RH  020%=      5-min Rain = 0
KBY1 011932Z 32009KT 10/M12 A3038 RMK A01 T01041117  RH  020%=      5-min Rain = 0
KBY1 011933Z 34007KT 10/M12 A3038 RMK A01 T01041115  RH  020%=      5-min Rain = 0
KBY1 011934Z 33006KT 11/M11 A3038 RMK A01 T01051114  RH  020%=      5-min Rain = 0
KBY1 011935Z 35005KT 10/M12 A3038 RMK A01 T01041116  RH  020%=      5-min Rain = 0
KBY1 011936Z 36004KT 10/M12 A3038 RMK A01 T01021118  RH  020%=      5-min Rain = 0
KBY1 011937Z 36003KT 10/M12 A3038 RMK A01 T01001118  RH  020%=      5-min Rain = 0
KBY1 011938Z 36005KT 10/M12 A3038 RMK A01 T01021115  RH  020%=      5-min Rain = 0
KBY1 011939Z 00004KT 10/M12 A3038 RMK A01 T01031118  RH  020%=      5-min Rain = 0
KBY1 011940Z 02003KT 10/M12 A3038 RMK A01 T01001120  RH  020%=      5-min Rain = 0
KBY1 011941Z 06002KT 10/M12 A3038 RMK A01 T00991120  RH  020%=      5-min Rain = 0
KBY1 011942Z 07003KT 10/M12 A3038 RMK A01 T00981120  RH  020%=      5-min Rain = 0
KBY1 011943Z 09001KT 10/M12 A3038 RMK A01 T00981120  RH  020%=      5-min Rain = 0
KBY1 011944Z 10001KT 10/M12 A3038 RMK A01 T00991119  RH  020%=      5-min Rain = 0
KBY1 011945Z 23003KT 10/M12 A3038 RMK A01 T01021117  RH  020%=      5-min Rain = 0
KBY1 011946Z 27007KT 11/M11 A3037 RMK A01 T01061114  RH  020%=      5-min Rain = 0
KBY1 011947Z 30007KT 11/M12 A3037 RMK A01 T01091115  RH  020%=      5-min Rain = 0
KBY1 011948Z 29005KT 11/M12 A3037 RMK A01 T01091118  RH  019%=      5-min Rain = 0
KBY1 011949Z 27007KT 11/M12 A3037 RMK A01 T01081116  RH  019%=      5-min Rain = 0
KBY1 011950Z 27008KT 11/M12 A3037 RMK A01 T01091117  RH  019%=      5-min Rain = 0
KBY1 011951Z 26003KT 11/M12 A3037 RMK A01 T01081118  RH  019%=      5-min Rain = 0
KBY1 011952Z 20001KT 11/M12 A3037 RMK A01 T01071119  RH  019%=      5-min Rain = 0
KBY1 011953Z 23001KT 11/M12 A3037 RMK A01 T01071119  RH  019%=      5-min Rain = 0
KBY1 011954Z 25003KT 11/M12 A3037 RMK A01 T01071119  RH  019%=      5-min Rain = 0
KBY1 011955Z 23003KT 11/M12 A3037 RMK A01 T01081118  RH  019%=      5-min Rain = 0
KBY1 011956Z 24005KT 11/M12 A3037 RMK A01 T01091119  RH  019%=      5-min Rain = 0
KBY1 011957Z 30005KT 11/M12 A3037 RMK A01 T01091118  RH  019%=      5-min Rain = 0
KBY1 011958Z 30005KT 11/M12 A3037 RMK A01 T01091116  RH  019%=      5-min Rain = 0
KBY1 011959Z 30004KT 11/M12 A3037 RMK A01 T01101115  RH  019%=      5-min Rain = 0
KBY1 012000Z 29003KT 11/M12 A3037 RMK A01 T01091118  RH  019%=      5-min Rain = 0
KBY1 012001Z 35001KT 11/M12 A3037 RMK A01 T01071118  RH  019%=      5-min Rain = 0
KBY1 012002Z 22001KT 11/M12 A3036 RMK A01 T01061118  RH  019%=      5-min Rain = 0
KBY1 012003Z 23006KT 11/M12 A3036 RMK A01 T01071118  RH  019%=      5-min Rain = 0
KBY1 012004Z 22003KT 11/M12 A3036 RMK A01 T01071117  RH  019%=      5-min Rain = 0
KBY1 012005Z 18002KT 11/M12 A3036 RMK A01 T01071116  RH  020%=      5-min Rain = 0
KBY1 012006Z 14002KT 11/M12 A3036 RMK A01 T01081116  RH  020%=      5-min Rain = 0
KBY1 012007Z 15002KT 11/M12 A3036 RMK A01 T01091116  RH  019%=      5-min Rain = 0
KBY1 012008Z 20002KT 11/M12 A3036 RMK A01 T01091117  RH  019%=      5-min Rain = 0
KBY1 012009Z 20003KT 11/M11 A3036 RMK A01 T01101113  RH  020%=      5-min Rain = 0
KBY1 012010Z 19007KT 11/M11 A3036 RMK A01 T01131113  RH  019%=      5-min Rain = 0
KBY1 012011Z 20006KT 11/M12 A3036 RMK A01 T01101118  RH  019%=      5-min Rain = 0
KBY1 012012Z 21003KT 11/M12 A3036 RMK A01 T01081118  RH  019%=      5-min Rain = 0
KBY1 012013Z 24003KT 11/M12 A3036 RMK A01 T01061118  RH  019%=      5-min Rain = 0
KBY1 012014Z 23005KT 11/M12 A3036 RMK A01 T01061118  RH  020%=      5-min Rain = 0
KBY1 012015Z 29007KT 11/M12 A3036 RMK A01 T01071115  RH  020%=      5-min Rain = 0
KBY1 012016Z 28004KT 11/M11 A3036 RMK A01 T01121113  RH  019%=      5-min Rain = 0
KBY1 012017Z 26004KT 11/M12 A3036 RMK A01 T01121116  RH  019%=      5-min Rain = 0
KBY1 012018Z 26005KT 11/M12 A3035 RMK A01 T01101117  RH  019%=      5-min Rain = 0
KBY1 012019Z 27005KT 11/M12 A3036 RMK A01 T01101116  RH  019%=      5-min Rain = 0
KBY1 012020Z 26005KT 11/M12 A3035 RMK A01 T01101118  RH  019%=      5-min Rain = 0
KBY1 012021Z 31006KT 11/M12 A3036 RMK A01 T01101116  RH  019%=      5-min Rain = 0
KBY1 012022Z 31008KT 11/M12 A3035 RMK A01 T01121116  RH  019%=      5-min Rain = 0
KBY1 012023Z 31003KT 11/M12 A3036 RMK A01 T01101118  RH  019%=      5-min Rain = 0
KBY1 012024Z 31005KT 11/M12 A3036 RMK A01 T01081119  RH  019%=      5-min Rain = 0
KBY1 012025Z 32004KT 11/M12 A3035 RMK A01 T01081117  RH  019%=      5-min Rain = 0
KBY1 012026Z 36002KT 11/M12 A3035 RMK A01 T01091118  RH  019%=      5-min Rain = 0
KBY1 012027Z 05004KT 11/M12 A3035 RMK A01 T01091116  RH  019%=      5-min Rain = 0
KBY1 012028Z 06005KT 11/M12 A3035 RMK A01 T01101117  RH  019%=      5-min Rain = 0
KBY1 012029Z 06004KT 11/M12 A3035 RMK A01 T01091118  RH  019%=      5-min Rain = 0
KBY1 012030Z 07003KT 11/M12 A3035 RMK A01 T01081118  RH  019%=      5-min Rain = 0
KBY1 012031Z 18001KT 11/M12 A3035 RMK A01 T01091118  RH  019%=      5-min Rain = 0
KBY1 012032Z 23001KT 11/M12 A3035 RMK A01 T01121115  RH  019%=      5-min Rain = 0
KBY1 012033Z 23003KT 12/M12 A3035 RMK A01 T01151115  RH  019%=      5-min Rain = 0
KBY1 012034Z 20003KT 12/M12 A3035 RMK A01 T01171117  RH  018%=      5-min Rain = 0
KBY1 012035Z 23002KT 11/M12 A3035 RMK A01 T01141121  RH  018%=      5-min Rain = 0
KBY1 012036Z 26006KT 11/M12 A3035 RMK A01 T01121121  RH  018%=      5-min Rain = 0
KBY1 012037Z 27006KT 11/M12 A3035 RMK A01 T01121120  RH  018%=      5-min Rain = 0
KBY1 012038Z 27005KT 11/M12 A3035 RMK A01 T01131119  RH  018%=      5-min Rain = 0
KBY1 012039Z 26006KT 12/M12 A3035 RMK A01 T01151119  RH  018%=      5-min Rain = 0
KBY1 012040Z 29007KT 12/M12 A3035 RMK A01 T01151121  RH  018%=      5-min Rain = 0
KBY1 012041Z 30008G13KT 12/M13 A3035 RMK A01 T01151126  RH  017%=      5-min Rain = 0
KBY1 012042Z 31007KT 12/M13 A3035 RMK A01 T01151126  RH  017%=      5-min Rain = 0
KBY1 012043Z 32007KT 12/M12 A3035 RMK A01 T01151124  RH  017%=      5-min Rain = 0
KBY1 012044Z 32007KT 12/M12 A3035 RMK A01 T01151122  RH  018%=      5-min Rain = 0
KBY1 012045Z 31006KT 12/M12 A3035 RMK A01 T01151123  RH  018%=      5-min Rain = 0
KBY1 012046Z 32006KT 11/M12 A3035 RMK A01 T01141122  RH  018%=      5-min Rain = 0
KBY1 012047Z 30007KT 12/M12 A3035 RMK A01 T01161122  RH  018%=      5-min Rain = 0
KBY1 012048Z 33005KT 12/M13 A3035 RMK A01 T01151127  RH  017%=      5-min Rain = 0
KBY1 012049Z 33006KT 11/M13 A3035 RMK A01 T01131126  RH  017%=      5-min Rain = 0
KBY1 012050Z 30005KT 11/M12 A3035 RMK A01 T01141124  RH  018%=      5-min Rain = 0
KBY1 012051Z 30005KT 12/M12 A3035 RMK A01 T01151122  RH  018%=      5-min Rain = 0
KBY1 012052Z 35004KT 12/M12 A3035 RMK A01 T01161124  RH  017%=      5-min Rain = 0
KBY1 012053Z 35006KT 12/M12 A3035 RMK A01 T01161124  RH  017%=      5-min Rain = 0
KBY1 012054Z 00005KT 12/M13 A3035 RMK A01 T01171125  RH  017%=      5-min Rain = 0
KBY1 012055Z 01006KT 11/M13 A3035 RMK A01 T01131128  RH  017%=      5-min Rain = 0
KBY1 012056Z 02005KT 11/M13 A3035 RMK A01 T01101126  RH  018%=      5-min Rain = 0
KBY1 012057Z 01003KT 11/M12 A3035 RMK A01 T01101123  RH  018%=      5-min Rain = 0
KBY1 012058Z 02003G8KT 11/M12 A3035 RMK A01 T01111122  RH  018%=      5-min Rain = 0
KBY1 012059Z 01008KT 11/M12 A3035 RMK A01 T01131121  RH  018%=      5-min Rain = 0
KBY1 012100Z 00006KT 11/M12 A3035 RMK A01 T01131124  RH  018%=      5-min Rain = 0
KBY1 012101Z 01004G9KT 11/M13 A3035 RMK A01 T01101125  RH  018%=      5-min Rain = 0
KBY1 012102Z 00008KT 11/M12 A3035 RMK A01 T01091123  RH  018%=      5-min Rain = 0
KBY1 012103Z 01005KT 11/M13 A3035 RMK A01 T01091125  RH  018%=      5-min Rain = 0
KBY1 012104Z 02003KT 11/M13 A3035 RMK A01 T01081125  RH  018%=      5-min Rain = 0
KBY1 012105Z 36006KT 11/M12 A3035 RMK A01 T01101122  RH  018%=      5-min Rain = 0
KBY1 012106Z 35006KT 11/M12 A3035 RMK A01 T01141120  RH  018%=      5-min Rain = 0
KBY1 012107Z 00005KT 12/M12 A3035 RMK A01 T01161120  RH  018%=      5-min Rain = 0
KBY1 012108Z 02008KT 12/M12 A3035 RMK A01 T01171118  RH  018%=      5-min Rain = 0
KBY1 012109Z 03008KT 12/M12 A3035 RMK A01 T01161121  RH  018%=      5-min Rain = 0
KBY1 012110Z 04007KT 11/M12 A3035 RMK A01 T01141121  RH  018%=      5-min Rain = 0
KBY1 012111Z 03005KT 11/M12 A3035 RMK A01 T01131122  RH  018%=      5-min Rain = 0
KBY1 012112Z 05005KT 11/M12 A3035 RMK A01 T01121122  RH  018%=      5-min Rain = 0
KBY1 012113Z 07005KT 11/M12 A3035 RMK A01 T01111122  RH  018%=      5-min Rain = 0
KBY1 012114Z 07004KT 11/M12 A3035 RMK A01 T01111122  RH  018%=      5-min Rain = 0
KBY1 012115Z 08004KT 11/M12 A3035 RMK A01 T01111121  RH  018%=      5-min Rain = 0
KBY1 012116Z 05006KT 11/M12 A3035 RMK A01 T01111121  RH  018%=      5-min Rain = 0
KBY1 012117Z 05003KT 11/M12 A3035 RMK A01 T01101123  RH  018%=      5-min Rain = 0
KBY1 012118Z 05002KT 11/M12 A3035 RMK A01 T01101123  RH  018%=      5-min Rain = 0
KBY1 012119Z 33002KT 11/M12 A3035 RMK A01 T01111122  RH  018%=      5-min Rain = 0
KBY1 012120Z 36005KT 11/M12 A3035 RMK A01 T01131121  RH  018%=      5-min Rain = 0
KBY1 012121Z 31005KT 12/M12 A3035 RMK A01 T01151122  RH  018%=      5-min Rain = 0
KBY1 012122Z 30005KT 12/M12 A3035 RMK A01 T01181123  RH  017%=      5-min Rain = 0
KBY1 012123Z 29004KT 12/M12 A3035 RMK A01 T01211124  RH  017%=      5-min Rain = 0
KBY1 012124Z 28004KT 12/M12 A3035 RMK A01 T01221124  RH  017%=      5-min Rain = 0
KBY1 012125Z 33005KT 12/M12 A3035 RMK A01 T01231124  RH  017%=      5-min Rain = 0
KBY1 012126Z 30007KT 12/M13 A3035 RMK A01 T01231125  RH  016%=      5-min Rain = 0
KBY1 012127Z 27007KT 12/M13 A3035 RMK A01 T01191129  RH  016%=      5-min Rain = 0
KBY1 012128Z 27008KT 12/M13 A3034 RMK A01 T01181128  RH  016%=      5-min Rain = 0
KBY1 012129Z 28009KT 12/M13 A3035 RMK A01 T01191128  RH  016%=      5-min Rain = 0
KBY1 012130Z 28006KT 12/M13 A3035 RMK A01 T01191128  RH  017%=      5-min Rain = 0
KBY1 012131Z 28006KT 12/M13 A3035 RMK A01 T01211127  RH  016%=      5-min Rain = 0
KBY1 012132Z 29007KT 12/M13 A3034 RMK A01 T01191129  RH  016%=      5-min Rain = 0
KBY1 012133Z 29006KT 12/M13 A3034 RMK A01 T01191128  RH  016%=      5-min Rain = 0
KBY1 012134Z 28007KT 12/M13 A3034 RMK A01 T01181128  RH  017%=      5-min Rain = 0
KBY1 012135Z 26009KT 12/M13 A3034 RMK A01 T01211125  RH  017%=      5-min Rain = 0
KBY1 012136Z 27008KT 12/M13 A3034 RMK A01 T01231127  RH  016%=      5-min Rain = 0
KBY1 012137Z 25006KT 12/M13 A3034 RMK A01 T01191130  RH  016%=      5-min Rain = 0
KBY1 012138Z 25007KT 12/M13 A3034 RMK A01 T01171129  RH  017%=      5-min Rain = 0
KBY1 012139Z 26006KT 12/M13 A3034 RMK A01 T01181129  RH  016%=      5-min Rain = 0
KBY1 012140Z 27004KT 12/M13 A3034 RMK A01 T01151132  RH  016%=      5-min Rain = 0
KBY1 012141Z 27006KT 12/M13 A3034 RMK A01 T01151130  RH  017%=      5-min Rain = 0
KBY1 012142Z 29005KT 12/M13 A3034 RMK A01 T01151130  RH  017%=      5-min Rain = 0
KBY1 012143Z 32008KT 12/M13 A3034 RMK A01 T01161130  RH  017%=      5-min Rain = 0
KBY1 012144Z 33005KT 12/M13 A3034 RMK A01 T01171131  RH  016%=      5-min Rain = 0
KBY1 012145Z 32007KT 12/M13 A3034 RMK A01 T01161132  RH  016%=      5-min Rain = 0
KBY1 012146Z 33005KT 11/M13 A3034 RMK A01 T01141132  RH  016%=      5-min Rain = 0
KBY1 012147Z 32005KT 11/M13 A3034 RMK A01 T01131132  RH  017%=      5-min Rain = 0
KBY1 012148Z 34004KT 11/M13 A3034 RMK A01 T01131131  RH  017%=      5-min Rain = 0
KBY1 012149Z 33005KT 12/M13 A3034 RMK A01 T01161127  RH  017%=      5-min Rain = 0
KBY1 012150Z 30006KT 12/M13 A3034 RMK A01 T01171128  RH  017%=      5-min Rain = 0
KBY1 012151Z 30004KT 12/M13 A3034 RMK A01 T01161129  RH  017%=      5-min Rain = 0
KBY1 012152Z 29004KT 12/M13 A3034 RMK A01 T01151129  RH  017%=      5-min Rain = 0
KBY1 012153Z 28002KT 11/M13 A3034 RMK A01 T01141130  RH  017%=      5-min Rain = 0
KBY1 012154Z 36003KT 11/M13 A3034 RMK A01 T01141131  RH  017%=      5-min Rain = 0
KBY1 012155Z 01002KT 11/M13 A3034 RMK A01 T01141132  RH  016%=      5-min Rain = 0
KBY1 012156Z 33003KT 11/M13 A3034 RMK A01 T01121131  RH  017%=      5-min Rain = 0
KBY1 012157Z 28003KT 11/M13 A3034 RMK A01 T01121131  RH  017%=      5-min Rain = 0
KBY1 012158Z 26003KT 11/M13 A3034 RMK A01 T01121133  RH  017%=      5-min Rain = 0
KBY1 012159Z 33003KT 11/M13 A3034 RMK A01 T01121133  RH  016%=      5-min Rain = 0
KBY1 012200Z 02004KT 11/M13 A3034 RMK A01 T01141134  RH  016%=      5-min Rain = 0
KBY1 012201Z 03002KT 11/M14 A3034 RMK A01 T01141138  RH  016%=      5-min Rain = 0
KBY1 012202Z 05002KT 11/M14 A3034 RMK A01 T01131138  RH  016%=      5-min Rain = 0
KBY1 012203Z 08005KT 11/M14 A3034 RMK A01 T01131136  RH  016%=      5-min Rain = 0
KBY1 012204Z 10004KT 11/M13 A3034 RMK A01 T01141133  RH  016%=      5-min Rain = 0
KBY1 012205Z 13003KT 11/M13 A3034 RMK A01 T01121133  RH  017%=      5-min Rain = 0
KBY1 012206Z 14005KT 11/M13 A3034 RMK A01 T01111131  RH  017%=      5-min Rain = 0
KBY1 012207Z 15005KT 11/M13 A3034 RMK A01 T01111131  RH  017%=      5-min Rain = 0
KBY1 012208Z 16003KT 11/M13 A3034 RMK A01 T01121131  RH  017%=      5-min Rain = 0
KBY1 012209Z 17003KT 11/M13 A3034 RMK A01 T01131131  RH  017%=      5-min Rain = 0
KBY1 012210Z 19003KT 11/M13 A3034 RMK A01 T01141130  RH  017%=      5-min Rain = 0
KBY1 012211Z 20003KT 12/M13 A3034 RMK A01 T01151131  RH  017%=      5-min Rain = 0
KBY1 012212Z 22003KT 12/M13 A3034 RMK A01 T01161129  RH  017%=      5-min Rain = 0
KBY1 012213Z 25004KT 12/M13 A3034 RMK A01 T01171129  RH  017%=      5-min Rain = 0
KBY1 012214Z 25002KT 12/M13 A3034 RMK A01 T01171129  RH  017%=      5-min Rain = 0
KBY1 012215Z 27002KT 12/M13 A3034 RMK A01 T01171129  RH  017%=      5-min Rain = 0
KBY1 012216Z 25005KT 12/M13 A3034 RMK A01 T01181129  RH  016%=      5-min Rain = 0
KBY1 012217Z 22005KT 12/M13 A3033 RMK A01 T01181129  RH  016%=      5-min Rain = 0
KBY1 012218Z 23007KT 12/M13 A3033 RMK A01 T01171129  RH  017%=      5-min Rain = 0
KBY1 012219Z 23006KT 12/M13 A3033 RMK A01 T01161129  RH  017%=      5-min Rain = 0
KBY1 012220Z 25005KT 12/M13 A3033 RMK A01 T01151129  RH  017%=      5-min Rain = 0
KBY1 012221Z 30005KT 12/M13 A3033 RMK A01 T01171126  RH  017%=      5-min Rain = 0
KBY1 012222Z 32005KT 12/M13 A3033 RMK A01 T01191126  RH  017%=      5-min Rain = 0
KBY1 012223Z 24005KT 12/M13 A3033 RMK A01 T01191128  RH  017%=      5-min Rain = 0
KBY1 012224Z 26007KT 12/M13 A3033 RMK A01 T01191127  RH  017%=      5-min Rain = 0
KBY1 012225Z 25006KT 12/M13 A3033 RMK A01 T01181129  RH  016%=      5-min Rain = 0
KBY1 012226Z 25004KT 12/M13 A3033 RMK A01 T01161130  RH  017%=      5-min Rain = 0
KBY1 012227Z 24003KT 12/M13 A3033 RMK A01 T01151130  RH  017%=      5-min Rain = 0
KBY1 012228Z 24002KT 12/M13 A3033 RMK A01 T01151130  RH  017%=      5-min Rain = 0
KBY1 012229Z 25003KT 12/M13 A3033 RMK A01 T01161129  RH  017%=      5-min Rain = 0
KBY1 012230Z 28001KT 12/M13 A3033 RMK A01 T01161130  RH  017%=      5-min Rain = 0
KBY1 012231Z 32000KT 12/M13 A3033 RMK A01 T01151130  RH  017%=      5-min Rain = 0
KBY1 012232Z 24002KT 12/M13 A3033 RMK A01 T01171128  RH  017%=      5-min Rain = 0
KBY1 012233Z 23003KT 12/M13 A3033 RMK A01 T01201128  RH  016%=      5-min Rain = 0
KBY1 012234Z 23003KT 12/M13 A3033 RMK A01 T01201129  RH  016%=      5-min Rain = 0
KBY1 012235Z 22005KT 12/M13 A3033 RMK A01 T01191130  RH  016%=      5-min Rain = 0
KBY1 012236Z 25008KT 12/M13 A3033 RMK A01 T01191130  RH  016%=      5-min Rain = 0
KBY1 012237Z 26007KT 12/M13 A3033 RMK A01 T01191129  RH  016%=      5-min Rain = 0
KBY1 012238Z 27006KT 12/M13 A3033 RMK A01 T01171131  RH  016%=      5-min Rain = 0
KBY1 012239Z 26005KT 12/M13 A3033 RMK A01 T01161131  RH  016%=      5-min Rain = 0
KBY1 012240Z 25003KT 12/M13 A3033 RMK A01 T01151131  RH  016%=      5-min Rain = 0
KBY1 012241Z 23004KT 12/M13 A3033 RMK A01 T01161129  RH  017%=      5-min Rain = 0
KBY1 012242Z 21005KT 12/M13 A3033 RMK A01 T01181128  RH  017%=      5-min Rain = 0
KBY1 012243Z 23005KT 12/M13 A3033 RMK A01 T01181130  RH  016%=      5-min Rain = 0
KBY1 012244Z 25004KT 12/M13 A3033 RMK A01 T01181130  RH  016%=      5-min Rain = 0
KBY1 012245Z 30005KT 12/M13 A3033 RMK A01 T01171131  RH  016%=      5-min Rain = 0
KBY1 012246Z 31004KT 12/M13 A3033 RMK A01 T01171131  RH  016%=      5-min Rain = 0
KBY1 012247Z 31005KT 12/M13 A3033 RMK A01 T01171131  RH  016%=      5-min Rain = 0
KBY1 012248Z 31006KT 12/M13 A3033 RMK A01 T01161132  RH  016%=      5-min Rain = 0
KBY1 012249Z 31006KT 12/M13 A3033 RMK A01 T01151133  RH  016%=      5-min Rain = 0
KBY1 012250Z 28002KT 12/M13 A3033 RMK A01 T01151133  RH  016%=      5-min Rain = 0
KBY1 012251Z 29002KT 11/M13 A3033 RMK A01 T01141133  RH  016%=      5-min Rain = 0
KBY1 012252Z 28001KT 12/M13 A3033 RMK A01 T01161132  RH  016%=      5-min Rain = 0
KBY1 012253Z 29004KT 12/M13 A3033 RMK A01 T01171133  RH  016%=      5-min Rain = 0
KBY1 012254Z 29004KT 12/M14 A3033 RMK A01 T01171135  RH  016%=      5-min Rain = 0
KBY1 012255Z 30003KT 12/M14 A3033 RMK A01 T01161136  RH  016%=      5-min Rain = 0
KBY1 012256Z 32001KT 12/M14 A3033 RMK A01 T01161136  RH  016%=      5-min Rain = 0
KBY1 012257Z 12001KT 12/M14 A3033 RMK A01 T01171135  RH  016%=      5-min Rain = 0
KBY1 012258Z 08001KT 12/M14 A3033 RMK A01 T01171136  RH  016%=      5-min Rain = 0
KBY1 012259Z 07000KT 12/M14 A3033 RMK A01 T01161137  RH  016%=      5-min Rain = 0
KBY1 012300Z 05000KT 12/M14 A3033 RMK A01 T01151137  RH  016%=      5-min Rain = 0
KBY1 012301Z 10001KT 12/M14 A3033 RMK A01 T01151136  RH  016%=      5-min Rain = 0
KBY1 012302Z 21002KT 12/M14 A3033 RMK A01 T01161135  RH  016%=      5-min Rain = 0
KBY1 012303Z 24001KT 12/M13 A3033 RMK A01 T01181133  RH  016%=      5-min Rain = 0
KBY1 012304Z 27002KT 12/M13 A3033 RMK A01 T01201132  RH  016%=      5-min Rain = 0
KBY1 012305Z 31003KT 12/M13 A3033 RMK A01 T01221132  RH  016%=      5-min Rain = 0
KBY1 012306Z 28002KT 12/M13 A3033 RMK A01 T01221134  RH  015%=      5-min Rain = 0
KBY1 012307Z 25003KT 12/M13 A3033 RMK A01 T01221134  RH  015%=      5-min Rain = 0
KBY1 012308Z 25002KT 12/M14 A3033 RMK A01 T01201136  RH  015%=      5-min Rain = 0
KBY1 012309Z 26003KT 12/M13 A3033 RMK A01 T01191134  RH  016%=      5-min Rain = 0
KBY1 012310Z 27003KT 12/M13 A3033 RMK A01 T01191134  RH  016%=      5-min Rain = 0
KBY1 012311Z 27002KT 12/M13 A3033 RMK A01 T01201134  RH  016%=      5-min Rain = 0
KBY1 012312Z 28002KT 12/M13 A3033 RMK A01 T01201134  RH  016%=      5-min Rain = 0
KBY1 012313Z 26005KT 12/M13 A3033 RMK A01 T01211133  RH  016%=      5-min Rain = 0
KBY1 012314Z 27005KT 12/M13 A3033 RMK A01 T01201133  RH  016%=      5-min Rain = 0
KBY1 012315Z 27003KT 12/M13 A3033 RMK A01 T01181134  RH  016%=      5-min Rain = 0
KBY1 012316Z 24002KT 12/M13 A3033 RMK A01 T01171133  RH  016%=      5-min Rain = 0
KBY1 012317Z 24003KT 12/M13 A3033 RMK A01 T01171132  RH  016%=      5-min Rain = 0
KBY1 012318Z 23003KT 12/M13 A3032 RMK A01 T01171132  RH  016%=      5-min Rain = 0
KBY1 012319Z 26002KT 12/M13 A3032 RMK A01 T01181132  RH  016%=      5-min Rain = 0
KBY1 012320Z 28004KT 12/M13 A3032 RMK A01 T01191131  RH  016%=      5-min Rain = 0
KBY1 012321Z 27005KT 12/M13 A3032 RMK A01 T01191132  RH  016%=      5-min Rain = 0
KBY1 012322Z 28004KT 12/M13 A3032 RMK A01 T01171133  RH  016%=      5-min Rain = 0
KBY1 012323Z 28003KT 12/M13 A3032 RMK A01 T01161132  RH  016%=      5-min Rain = 0
KBY1 012324Z 26004KT 12/M13 A3032 RMK A01 T01161132  RH  016%=      5-min Rain = 0
KBY1 012325Z 24002KT 12/M13 A3032 RMK A01 T01161134  RH  016%=      5-min Rain = 0
KBY1 012326Z 25002KT 12/M13 A3032 RMK A01 T01151134  RH  016%=      5-min Rain = 0
KBY1 012327Z 26003KT 12/M13 A3032 RMK A01 T01151134  RH  016%=      5-min Rain = 0
KBY1 012328Z 23004G9KT 12/M13 A3032 RMK A01 T01151133  RH  016%=      5-min Rain = 0
KBY1 012329Z 24005KT 12/M13 A3032 RMK A01 T01161132  RH  016%=      5-min Rain = 0
KBY1 012330Z 24006KT 12/M13 A3032 RMK A01 T01171131  RH  016%=      5-min Rain = 0
KBY1 012331Z 25007KT 12/M13 A3032 RMK A01 T01161133  RH  016%=      5-min Rain = 0
KBY1 012332Z 26007KT 12/M13 A3032 RMK A01 T01151132  RH  016%=      5-min Rain = 0
KBY1 012333Z 25005KT 12/M13 A3032 RMK A01 T01151133  RH  016%=      5-min Rain = 0
KBY1 012334Z 25005KT 11/M13 A3032 RMK A01 T01141134  RH  016%=      5-min Rain = 0
KBY1 012335Z 26004KT 11/M13 A3032 RMK A01 T01131134  RH  016%=      5-min Rain = 0
KBY1 012336Z 25004KT 11/M13 A3032 RMK A01 T01131133  RH  016%=      5-min Rain = 0
KBY1 012337Z 25002KT 11/M13 A3032 RMK A01 T01131134  RH  016%=      5-min Rain = 0
KBY1 012338Z 25002KT 11/M13 A3032 RMK A01 T01131134  RH  016%=      5-min Rain = 0
KBY1 012339Z 21002KT 11/M13 A3032 RMK A01 T01141133  RH  016%=      5-min Rain = 0
KBY1 012340Z 19003KT 11/M13 A3032 RMK A01 T01141133  RH  016%=      5-min Rain = 0
KBY1 012341Z 19003KT 11/M13 A3032 RMK A01 T01141134  RH  016%=      5-min Rain = 0
KBY1 012342Z 21003KT 11/M13 A3032 RMK A01 T01141134  RH  016%=      5-min Rain = 0
KBY1 012343Z 23003KT 11/M13 A3032 RMK A01 T01141133  RH  016%=      5-min Rain = 0
KBY1 012344Z 23003KT 11/M13 A3032 RMK A01 T01141134  RH  016%=      5-min Rain = 0
KBY1 012345Z 23003KT 11/M14 A3032 RMK A01 T01131135  RH  016%=      5-min Rain = 0
KBY1 012346Z 23005KT 11/M14 A3032 RMK A01 T01131135  RH  016%=      5-min Rain = 0
KBY1 012347Z 23005KT 11/M14 A3032 RMK A01 T01131136  RH  016%=      5-min Rain = 0
KBY1 012348Z 21004KT 11/M14 A3032 RMK A01 T01121136  RH  016%=      5-min Rain = 0
KBY1 012349Z 21004KT 11/M14 A3032 RMK A01 T01111135  RH  016%=      5-min Rain = 0
KBY1 012350Z 22004KT 11/M13 A3032 RMK A01 T01111134  RH  016%=      5-min Rain = 0
KBY1 012351Z 21005KT 11/M14 A3032 RMK A01 T01111135  RH  016%=      5-min Rain = 0
KBY1 012352Z 20003KT 11/M14 A3032 RMK A01 T01111136  RH  016%=      5-min Rain = 0
KBY1 012353Z 22003KT 11/M14 A3032 RMK A01 T01101136  RH  016%=      5-min Rain = 0
KBY1 012354Z 20003KT 11/M14 A3032 RMK A01 T01111135  RH  016%=      5-min Rain = 0
KBY1 012355Z 20005KT 11/M14 A3032 RMK A01 T01111135  RH  016%=      5-min Rain = 0
KBY1 012356Z 21004KT 11/M14 A3032 RMK A01 T01101136  RH  016%=      5-min Rain = 0
KBY1 012357Z 19004KT 11/M14 A3032 RMK A01 T01101137  RH  016%=      5-min Rain = 0
KBY1 012358Z 19003KT 11/M14 A3032 RMK A01 T01091136  RH  016%=      5-min Rain = 0
KBY1 012359Z 19003KT 11/M14 A3032 RMK A01 T01091136  RH  016%=      5-min Rain = 0
KBY1 020000Z 18003KT 11/M14 A3032 RMK A01 T01091135  RH  017%=      5-min Rain = 0
KBY1 020001Z 18003KT 11/M13 A3032 RMK A01 T01091134  RH  017%=      5-min Rain = 0
KBY1 020002Z 19003KT 11/M13 A3032 RMK A01 T01091134  RH  017%=      5-min Rain = 0
KBY1 020003Z 18002KT 11/M13 A3032 RMK A01 T01101134  RH  017%=      5-min Rain = 0
KBY1 020004Z 19002KT 11/M13 A3032 RMK A01 T01101134  RH  017%=      5-min Rain = 0
KBY1 020005Z 21003KT 11/M14 A3032 RMK A01 T01091135  RH  017%=      5-min Rain = 0
KBY1 020006Z 26001KT 11/M14 A3032 RMK A01 T01101135  RH  017%=      5-min Rain = 0
KBY1 020007Z 19001KT 11/M14 A3032 RMK A01 T01101135  RH  017%=      5-min Rain = 0
KBY1 020008Z 21002KT 11/M14 A3032 RMK A01 T01101135  RH  017%=      5-min Rain = 0
KBY1 020009Z 23004KT 11/M13 A3032 RMK A01 T01111134  RH  016%=      5-min Rain = 0
KBY1 020010Z 22003KT 11/M14 A3032 RMK A01 T01101135  RH  016%=      5-min Rain = 0
KBY1 020011Z 22003KT 11/M14 A3032 RMK A01 T01101135  RH  017%=      5-min Rain = 0
KBY1 020012Z 23004KT 11/M14 A3032 RMK A01 T01091135  RH  017%=      5-min Rain = 0
KBY1 020013Z 22002KT 11/M14 A3032 RMK A01 T01081135  RH  017%=      5-min Rain = 0
KBY1 020014Z 23003KT 11/M14 A3032 RMK A01 T01081135  RH  017%=      5-min Rain = 0
KBY1 020015Z 23003KT 11/M14 A3032 RMK A01 T01071135  RH  017%=      5-min Rain = 0
KBY1 020016Z 24004KT 11/M14 A3032 RMK A01 T01071135  RH  017%=      5-min Rain = 0
KBY1 020017Z 24005KT 11/M14 A3032 RMK A01 T01061135  RH  017%=      5-min Rain = 0
KBY1 020018Z 23005KT 11/M14 A3032 RMK A01 T01051135  RH  017%=      5-min Rain = 0
KBY1 020019Z 23006KT 10/M14 A3032 RMK A01 T01041135  RH  017%=      5-min Rain = 0
KBY1 020020Z 22005KT 10/M14 A3032 RMK A01 T01041135  RH  017%=      5-min Rain = 0
KBY1 020021Z 22005KT 10/M14 A3032 RMK A01 T01041135  RH  017%=      5-min Rain = 0
KBY1 020022Z 23005KT 10/M14 A3032 RMK A01 T01041135  RH  017%=      5-min Rain = 0
KBY1 020023Z 24004KT 10/M14 A3032 RMK A01 T01021135  RH  017%=      5-min Rain = 0
KBY1 020024Z 24004KT 10/M14 A3032 RMK A01 T01001136  RH  018%=      5-min Rain = 0
KBY1 020025Z 24003KT 10/M14 A3032 RMK A01 T00991137  RH  018%=      5-min Rain = 0
KBY1 020026Z 24003KT 10/M14 A3032 RMK A01 T00981137  RH  018%=      5-min Rain = 0
KBY1 020027Z 24004KT 10/M14 A3032 RMK A01 T00971137  RH  018%=      5-min Rain = 0
KBY1 020028Z 24004KT 10/M14 A3032 RMK A01 T00961137  RH  018%=      5-min Rain = 0
KBY1 020029Z 25004KT 10/M14 A3032 RMK A01 T00951137  RH  018%=      5-min Rain = 0
KBY1 020030Z 25004KT 09/M14 A3032 RMK A01 T00941137  RH  018%=      5-min Rain = 0
KBY1 020031Z 25004KT 09/M14 A3032 RMK A01 T00931137  RH  018%=      5-min Rain = 0
KBY1 020032Z 25004KT 09/M14 A3032 RMK A01 T00921137  RH  018%=      5-min Rain = 0
KBY1 020033Z 25003KT 09/M14 A3032 RMK A01 T00921137  RH  018%=      5-min Rain = 0
KBY1 020034Z 25003KT 09/M14 A3032 RMK A01 T00921137  RH  018%=      5-min Rain = 0
KBY1 020035Z 25003KT 09/M14 A3032 RMK A01 T00921137  RH  018%=      5-min Rain = 0
KBY1 020036Z 25003KT 09/M14 A3032 RMK A01 T00921136  RH  018%=      5-min Rain = 0
KBY1 020037Z 25003KT 09/M14 A3032 RMK A01 T00921136  RH  018%=      5-min Rain = 0
KBY1 020038Z 25003KT 09/M14 A3032 RMK A01 T00921136  RH  019%=      5-min Rain = 0
KBY1 020039Z 25003KT 09/M14 A3032 RMK A01 T00911136  RH  019%=      5-min Rain = 0
KBY1 020040Z 24002KT 09/M14 A3032 RMK A01 T00901136  RH  019%=      5-min Rain = 0
KBY1 020041Z 23002KT 09/M14 A3032 RMK A01 T00881137  RH  019%=      5-min Rain = 0
KBY1 020042Z 23002KT 09/M14 A3032 RMK A01 T00861139  RH  019%=      5-min Rain = 0
KBY1 020043Z 23002KT 08/M14 A3032 RMK A01 T00831139  RH  019%=      5-min Rain = 0
KBY1 020044Z 21001KT 08/M14 A3032 RMK A01 T00811139  RH  019%=      5-min Rain = 0
KBY1 020045Z 20001KT 08/M14 A3032 RMK A01 T00801139  RH  020%=      5-min Rain = 0
KBY1 020046Z 19001KT 08/M14 A3032 RMK A01 T00791139  RH  020%=      5-min Rain = 0
KBY1 020047Z 19001KT 08/M14 A3032 RMK A01 T00781139  RH  020%=      5-min Rain = 0
KBY1 020048Z 19001KT 08/M14 A3032 RMK A01 T00771139  RH  020%=      5-min Rain = 0
KBY1 020049Z 19001KT 08/M14 A3032 RMK A01 T00761138  RH  020%=      5-min Rain = 0
KBY1 020050Z 19001KT 08/M14 A3032 RMK A01 T00761138  RH  020%=      5-min Rain = 0
KBY1 020051Z 19001KT 08/M14 A3032 RMK A01 T00751138  RH  020%=      5-min Rain = 0
KBY1 020052Z 20001KT 08/M14 A3032 RMK A01 T00751138  RH  020%=      5-min Rain = 0
KBY1 020053Z 21002KT 08/M14 A3032 RMK A01 T00751138  RH  020%=      5-min Rain = 0
KBY1 020054Z 22002KT 08/M14 A3032 RMK A01 T00751137  RH  021%=      5-min Rain = 0
KBY1 020055Z 23002KT 07/M14 A3033 RMK A01 T00741138  RH  021%=      5-min Rain = 0
KBY1 020056Z 23002KT 07/M14 A3032 RMK A01 T00731139  RH  021%=      5-min Rain = 0
KBY1 020057Z 22002KT 07/M14 A3032 RMK A01 T00711140  RH  021%=      5-min Rain = 0
KBY1 020058Z 22002KT 07/M14 A3033 RMK A01 T00691140  RH  021%=      5-min Rain = 0
KBY1 020059Z 22002KT 07/M14 A3033 RMK A01 T00681140  RH  021%=      5-min Rain = 0
KBY1 020100Z 22002KT 07/M14 A3033 RMK A01 T00661140  RH  021%=      5-min Rain = 0
KBY1 020101Z 22002KT 07/M14 A3033 RMK A01 T00661139  RH  021%=      5-min Rain = 0
KBY1 020102Z 22002KT 07/M14 A3033 RMK A01 T00651140  RH  022%=      5-min Rain = 0
KBY1 020103Z 21002KT 07/M14 A3033 RMK A01 T00671138  RH  022%=      5-min Rain = 0
KBY1 020104Z 21002KT 07/M14 A3033 RMK A01 T00691138  RH  021%=      5-min Rain = 0
KBY1 020105Z 21002KT 07/M14 A3033 RMK A01 T00691138  RH  021%=      5-min Rain = 0
KBY1 020106Z 21002KT 07/M14 A3032 RMK A01 T00701138  RH  021%=      5-min Rain = 0
KBY1 020107Z 19002KT 07/M14 A3032 RMK A01 T00691139  RH  021%=      5-min Rain = 0
KBY1 020108Z 21002KT 07/M14 A3032 RMK A01 T00691139  RH  021%=      5-min Rain = 0
KBY1 020109Z 21001KT 07/M14 A3033 RMK A01 T00681139  RH  021%=      5-min Rain = 0
KBY1 020110Z 20001KT 07/M14 A3033 RMK A01 T00671140  RH  021%=      5-min Rain = 0
KBY1 020111Z 19001KT 07/M14 A3033 RMK A01 T00651141  RH  021%=      5-min Rain = 0
KBY1 020112Z 19001KT 06/M14 A3033 RMK A01 T00631141  RH  022%=      5-min Rain = 0
KBY1 020113Z 20001KT 06/M14 A3033 RMK A01 T00621141  RH  022%=      5-min Rain = 0
KBY1 020114Z 20000KT 06/M14 A3033 RMK A01 T00621140  RH  022%=      5-min Rain = 0
KBY1 020115Z 20001KT 06/M14 A3033 RMK A01 T00621139  RH  022%=      5-min Rain = 0
KBY1 020116Z 18001KT 06/M14 A3033 RMK A01 T00621139  RH  022%=      5-min Rain = 0
KBY1 020117Z 20001KT 06/M14 A3033 RMK A01 T00621139  RH  022%=      5-min Rain = 0
KBY1 020118Z 20001KT 06/M14 A3033 RMK A01 T00631139  RH  022%=      5-min Rain = 0
KBY1 020119Z 20001KT 06/M14 A3033 RMK A01 T00631139  RH  022%=      5-min Rain = 0
KBY1 020120Z 20001KT 06/M14 A3033 RMK A01 T00631140  RH  022%=      5-min Rain = 0
KBY1 020121Z 20001KT 06/M14 A3033 RMK A01 T00621140  RH  022%=      5-min Rain = 0
KBY1 020122Z 21001KT 06/M14 A3033 RMK A01 T00631139  RH  022%=      5-min Rain = 0
KBY1 020123Z 21001KT 06/M14 A3033 RMK A01 T00621139  RH  022%=      5-min Rain = 0
KBY1 020124Z 22001KT 06/M14 A3033 RMK A01 T00611140  RH  022%=      5-min Rain = 0
KBY1 020125Z 22001KT 06/M14 A3033 RMK A01 T00611140  RH  022%=      5-min Rain = 0
KBY1 020126Z 22001KT 06/M14 A3033 RMK A01 T00601140  RH  022%=      5-min Rain = 0
KBY1 020127Z 21001KT 06/M14 A3033 RMK A01 T00601140  RH  022%=      5-min Rain = 0
KBY1 020128Z 20001KT 06/M14 A3033 RMK A01 T00601140  RH  022%=      5-min Rain = 0
KBY1 020129Z 21001KT 06/M14 A3033 RMK A01 T00601140  RH  022%=      5-min Rain = 0
KBY1 020130Z 20001KT 06/M14 A3033 RMK A01 T00591140  RH  022%=      5-min Rain = 0
KBY1 020131Z 00000KT 06/M14 A3033 RMK A01 T00591140  RH  022%=      5-min Rain = 0
KBY1 020132Z 22000KT 06/M14 A3033 RMK A01 T00591140  RH  022%=      5-min Rain = 0
KBY1 020133Z 24000KT 06/M14 A3033 RMK A01 T00591140  RH  022%=      5-min Rain = 0
KBY1 020134Z 25001KT 06/M14 A3033 RMK A01 T00601139  RH  022%=      5-min Rain = 0
KBY1 020135Z 25000KT 06/M14 A3033 RMK A01 T00601139  RH  022%=      5-min Rain = 0
KBY1 020136Z 00000KT 06/M14 A3033 RMK A01 T00601139  RH  022%=      5-min Rain = 0
KBY1 020137Z 23001KT 06/M14 A3033 RMK A01 T00601140  RH  022%=      5-min Rain = 0
KBY1 020138Z 24001KT 06/M14 A3033 RMK A01 T00601139  RH  022%=      5-min Rain = 0
KBY1 020139Z 24002KT 06/M14 A3033 RMK A01 T00591139  RH  023%=      5-min Rain = 0
KBY1 020140Z 24002KT 06/M14 A3033 RMK A01 T00571139  RH  023%=      5-min Rain = 0
KBY1 020141Z 24001KT 06/M14 A3033 RMK A01 T00551140  RH  023%=      5-min Rain = 0
KBY1 020142Z 23001KT 05/M14 A3033 RMK A01 T00531141  RH  023%=      5-min Rain = 0
KBY1 020143Z 24001KT 05/M15 A3033 RMK A01 T00471145  RH  023%=      5-min Rain = 0
KBY1 020144Z 24001KT 04/M15 A3033 RMK A01 T00411146  RH  024%=      5-min Rain = 0
KBY1 020145Z 24001KT 04/M14 A3033 RMK A01 T00381144  RH  025%=      5-min Rain = 0
KBY1 020146Z 23000KT 04/M14 A3033 RMK A01 T00361143  RH  026%=      5-min Rain = 0
KBY1 020147Z 25001KT 04/M14 A3033 RMK A01 T00351143  RH  026%=      5-min Rain = 0
KBY1 020148Z 25002KT 04/M14 A3033 RMK A01 T00351142  RH  026%=      5-min Rain = 0
KBY1 020149Z 24002KT 04/M14 A3033 RMK A01 T00371140  RH  026%=      5-min Rain = 0
KBY1 020150Z 22002KT 04/M14 A3033 RMK A01 T00391137  RH  026%=      5-min Rain = 0
KBY1 020151Z 21002KT 04/M14 A3033 RMK A01 T00421136  RH  026%=      5-min Rain = 0
KBY1 020152Z 21002KT 04/M14 A3033 RMK A01 T00441136  RH  026%=      5-min Rain = 0
KBY1 020153Z 21001KT 05/M14 A3033 RMK A01 T00461136  RH  025%=      5-min Rain = 0
KBY1 020154Z 21001KT 04/M14 A3033 RMK A01 T00441138  RH  025%=      5-min Rain = 0
KBY1 020155Z 20001KT 04/M14 A3033 RMK A01 T00411141  RH  025%=      5-min Rain = 0
KBY1 020156Z 20000KT 04/M14 A3033 RMK A01 T00351144  RH  026%=      5-min Rain = 0
KBY1 020157Z 00000KT 03/M14 A3033 RMK A01 T00321143  RH  027%=      5-min Rain = 0
KBY1 020158Z 00000KT 03/M14 A3033 RMK A01 T00311141  RH  027%=      5-min Rain = 0
KBY1 020159Z 14000KT 03/M14 A3033 RMK A01 T00311140  RH  027%=      5-min Rain = 0
KBY1 020200Z 11000KT 03/M14 A3033 RMK A01 T00311140  RH  027%=      5-min Rain = 0
KBY1 020201Z 13000KT 03/M14 A3033 RMK A01 T00301140  RH  027%=      5-min Rain = 0
KBY1 020202Z 00000KT 03/M14 A3033 RMK A01 T00301140  RH  027%=      5-min Rain = 0
KBY1 020203Z 00000KT 03/M14 A3033 RMK A01 T00301140  RH  027%=      5-min Rain = 0
KBY1 020204Z 00000KT 03/M14 A3033 RMK A01 T00321138  RH  027%=      5-min Rain = 0
KBY1 020205Z 00000KT 03/M14 A3033 RMK A01 T00341138  RH  027%=      5-min Rain = 0
KBY1 020206Z 00000KT 04/M14 A3033 RMK A01 T00351137  RH  027%=      5-min Rain = 0
KBY1 020207Z 07001KT 04/M14 A3033 RMK A01 T00371137  RH  027%=      5-min Rain = 0
KBY1 020208Z 07001KT 04/M14 A3033 RMK A01 T00381137  RH  027%=      5-min Rain = 0
KBY1 020209Z 08001KT 04/M14 A3033 RMK A01 T00391137  RH  026%=      5-min Rain = 0
KBY1 020210Z 06001KT 04/M14 A3033 RMK A01 T00401137  RH  026%=      5-min Rain = 0
KBY1 020211Z 05001KT 04/M14 A3033 RMK A01 T00411137  RH  026%=      5-min Rain = 0
KBY1 020212Z 04001KT 04/M14 A3033 RMK A01 T00401137  RH  026%=      5-min Rain = 0
KBY1 020213Z 04001KT 04/M14 A3033 RMK A01 T00401137  RH  026%=      5-min Rain = 0
KBY1 020214Z 06000KT 04/M14 A3033 RMK A01 T00401137  RH  026%=      5-min Rain = 0
KBY1 020215Z 04000KT 04/M14 A3033 RMK A01 T00401137  RH  026%=      5-min Rain = 0
KBY1 020216Z 04001KT 04/M14 A3033 RMK A01 T00401137  RH  026%=      5-min Rain = 0
KBY1 020217Z 05001KT 04/M14 A3033 RMK A01 T00391138  RH  026%=      5-min Rain = 0
KBY1 020218Z 06001KT 04/M14 A3033 RMK A01 T00381138  RH  026%=      5-min Rain = 0
KBY1 020219Z 05001KT 04/M14 A3033 RMK A01 T00371139  RH  026%=      5-min Rain = 0
KBY1 020220Z 06000KT 03/M14 A3033 RMK A01 T00331142  RH  027%=      5-min Rain = 0
KBY1 020221Z 05001KT 03/M14 A3033 RMK A01 T00281142  RH  027%=      5-min Rain = 0
KBY1 020222Z 05002KT 03/M14 A3033 RMK A01 T00281140  RH  028%=      5-min Rain = 0
KBY1 020223Z 04002KT 03/M14 A3033 RMK A01 T00311137  RH  028%=      5-min Rain = 0
KBY1 020224Z 04001KT 03/M14 A3033 RMK A01 T00321137  RH  028%=      5-min Rain = 0
KBY1 020225Z 04001KT 03/M14 A3033 RMK A01 T00321137  RH  028%=      5-min Rain = 0
KBY1 020226Z 04001KT 03/M14 A3033 RMK A01 T00321138  RH  027%=      5-min Rain = 0
KBY1 020227Z 04001KT 03/M14 A3033 RMK A01 T00271143  RH  027%=      5-min Rain = 0
KBY1 020228Z 04001KT 02/M15 A3033 RMK A01 T00201146  RH  028%=      5-min Rain = 0
KBY1 020229Z 04001KT 02/M15 A3033 RMK A01 T00151146  RH  029%=      5-min Rain = 0
KBY1 020230Z 05001KT 01/M14 A3033 RMK A01 T00121144  RH  030%=      5-min Rain = 0
KBY1 020231Z 05001KT 01/M14 A3033 RMK A01 T00101143  RH  031%=      5-min Rain = 0
KBY1 020232Z 04001KT 01/M14 A3033 RMK A01 T00071143  RH  031%=      5-min Rain = 0
KBY1 020233Z 05001KT 01/M14 A3033 RMK A01 T00061143  RH  032%=      5-min Rain = 0
KBY1 020234Z 05001KT 01/M14 A3033 RMK A01 T00051143  RH  032%=      5-min Rain = 0
KBY1 020235Z 04001KT 01/M14 A3033 RMK A01 T00051141  RH  033%=      5-min Rain = 0
KBY1 020236Z 04001KT 01/M14 A3033 RMK A01 T00071138  RH  033%=      5-min Rain = 0
KBY1 020237Z 03001KT 01/M14 A3033 RMK A01 T00111135  RH  033%=      5-min Rain = 0
KBY1 020238Z 03001KT 01/M14 A3033 RMK A01 T00141135  RH  032%=      5-min Rain = 0
KBY1 020239Z 03001KT 02/M14 A3033 RMK A01 T00151137  RH  031%=      5-min Rain = 0
KBY1 020240Z 03001KT 02/M14 A3033 RMK A01 T00151137  RH  031%=      5-min Rain = 0
KBY1 020241Z 03000KT 01/M14 A3033 RMK A01 T00141139  RH  031%=      5-min Rain = 0
KBY1 020242Z 04000KT 01/M14 A3033 RMK A01 T00121140  RH  031%=      5-min Rain = 0
KBY1 020243Z 02001KT 01/M14 A3033 RMK A01 T00101141  RH  031%=      5-min Rain = 0
KBY1 020244Z 01002KT 01/M14 A3033 RMK A01 T00081142  RH  032%=      5-min Rain = 0
KBY1 020245Z 01002KT 01/M14 A3033 RMK A01 T00081139  RH  032%=      5-min Rain = 0
KBY1 020246Z 03001KT 01/M13 A3033 RMK A01 T00101133  RH  034%=      5-min Rain = 0
KBY1 020247Z 02001KT 01/M13 A3033 RMK A01 T00101131  RH  034%=      5-min Rain = 0
KBY1 020248Z 02002KT 01/M13 A3033 RMK A01 T00091132  RH  034%=      5-min Rain = 0
KBY1 020249Z 02002KT 01/M14 A3033 RMK A01 T00091135  RH  033%=      5-min Rain = 0
KBY1 020250Z 01002KT 01/M14 A3033 RMK A01 T00061137  RH  033%=      5-min Rain = 0
KBY1 020251Z 01002KT 00/M14 A3033 RMK A01 T00041135  RH  034%=      5-min Rain = 0
KBY1 020252Z 02002KT 00/M13 A3033 RMK A01 T00031134  RH  035%=      5-min Rain = 0
KBY1 020253Z 01002KT 00/M13 A3033 RMK A01 T00021131  RH  036%=      5-min Rain = 0
KBY1 020254Z 00001KT 00/M13 A3033 RMK A01 T00011129  RH  037%=      5-min Rain = 0
KBY1 020255Z 35001KT 00/M13 A3033 RMK A01 T00011129  RH  037%=      5-min Rain = 0
KBY1 020256Z 33001KT M00/M14 A3033 RMK A01 T10011139  RH  035%=      5-min Rain = 0
KBY1 020257Z 34000KT M01/M14 A3033 RMK A01 T10051141  RH  035%=      5-min Rain = 0
KBY1 020258Z 01000KT M01/M14 A3033 RMK A01 T10071143  RH  035%=      5-min Rain = 0
KBY1 020259Z 00001KT M01/M14 A3033 RMK A01 T10091140  RH  036%=      5-min Rain = 0
KBY1 020300Z 00001KT M01/M14 A3033 RMK A01 T10081139  RH  036%=      5-min Rain = 0
KBY1 020301Z 01002KT M01/M14 A3033 RMK A01 T10091141  RH  036%=      5-min Rain = 0
KBY1 020302Z 03001KT M01/M14 A3033 RMK A01 T10101141  RH  036%=      5-min Rain = 0
KBY1 020303Z 03001KT M01/M14 A3033 RMK A01 T10091143  RH  036%=      5-min Rain = 0
KBY1 020304Z 02001KT M01/M15 A3033 RMK A01 T10101145  RH  035%=      5-min Rain = 0
KBY1 020305Z 02001KT M01/M14 A3033 RMK A01 T10101144  RH  035%=      5-min Rain = 0
KBY1 020306Z 02001KT M01/M15 A3033 RMK A01 T10131147  RH  035%=      5-min Rain = 0
KBY1 020307Z 02001KT M02/M15 A3033 RMK A01 T10151145  RH  036%=      5-min Rain = 0
KBY1 020308Z 00000KT M02/M15 A3033 RMK A01 T10171146  RH  037%=      5-min Rain = 0
KBY1 020309Z 00000KT M02/M15 A3033 RMK A01 T10191145  RH  038%=      5-min Rain = 0
KBY1 020310Z 00000KT M02/M14 A3033 RMK A01 T10211142  RH  039%=      5-min Rain = 0
KBY1 020311Z 00000KT M02/M14 A3033 RMK A01 T10231143  RH  039%=      5-min Rain = 0
KBY1 020312Z 22000KT M02/M14 A3033 RMK A01 T10241144  RH  039%=      5-min Rain = 0
KBY1 020313Z 22001KT M02/M14 A3033 RMK A01 T10241143  RH  040%=      5-min Rain = 0
KBY1 020314Z 22000KT M02/M14 A3033 RMK A01 T10231142  RH  040%=      5-min Rain = 0
KBY1 020315Z 00000KT M02/M14 A3033 RMK A01 T10211141  RH  040%=      5-min Rain = 0
KBY1 020316Z 00000KT M02/M14 A3033 RMK A01 T10201139  RH  039%=      5-min Rain = 0
KBY1 020317Z 00000KT M02/M14 A3033 RMK A01 T10191141  RH  039%=      5-min Rain = 0
KBY1 020318Z 00000KT M02/M14 A3033 RMK A01 T10171140  RH  039%=      5-min Rain = 0
KBY1 020319Z 36001KT M01/M14 A3033 RMK A01 T10141137  RH  038%=      5-min Rain = 0
KBY1 020320Z 35000KT M01/M14 A3033 RMK A01 T10111139  RH  037%=      5-min Rain = 0
KBY1 020321Z 01001KT M01/M14 A3033 RMK A01 T10101140  RH  036%=      5-min Rain = 0
KBY1 020322Z 00001KT M01/M14 A3033 RMK A01 T10101142  RH  036%=      5-min Rain = 0
KBY1 020323Z 35001KT M01/M14 A3033 RMK A01 T10111144  RH  036%=      5-min Rain = 0
KBY1 020324Z 00000KT M01/M14 A3033 RMK A01 T10121144  RH  036%=      5-min Rain = 0
KBY1 020325Z 00000KT M01/M14 A3033 RMK A01 T10121143  RH  036%=      5-min Rain = 0
KBY1 020326Z 00000KT M01/M14 A3033 RMK A01 T10131144  RH  036%=      5-min Rain = 0
KBY1 020327Z 35000KT M01/M14 A3033 RMK A01 T10141144  RH  037%=      5-min Rain = 0
KBY1 020328Z 01000KT M02/M14 A3033 RMK A01 T10151143  RH  037%=      5-min Rain = 0
KBY1 020329Z 01000KT M02/M14 A3033 RMK A01 T10151143  RH  037%=      5-min Rain = 0
KBY1 020330Z 02000KT M02/M14 A3033 RMK A01 T10151142  RH  037%=      5-min Rain = 0
KBY1 020331Z 02000KT M02/M14 A3033 RMK A01 T10151142  RH  037%=      5-min Rain = 0
KBY1 020332Z 36000KT M02/M14 A3033 RMK A01 T10161143  RH  037%=      5-min Rain = 0
KBY1 020333Z 35001KT M02/M14 A3033 RMK A01 T10171144  RH  037%=      5-min Rain = 0
KBY1 020334Z 35001KT M02/M15 A3033 RMK A01 T10181145  RH  037%=      5-min Rain = 0
KBY1 020335Z 34002KT M02/M14 A3033 RMK A01 T10181144  RH  037%=      5-min Rain = 0
KBY1 020336Z 34002KT M02/M14 A3033 RMK A01 T10171144  RH  037%=      5-min Rain = 0
KBY1 020337Z 36002KT M02/M14 A3033 RMK A01 T10151142  RH  037%=      5-min Rain = 0
KBY1 020338Z 36002KT M02/M14 A3033 RMK A01 T10161144  RH  037%=      5-min Rain = 0
KBY1 020339Z 35002KT M02/M15 A3033 RMK A01 T10191146  RH  037%=      5-min Rain = 0
KBY1 020340Z 02001KT M02/M15 A3033 RMK A01 T10221147  RH  038%=      5-min Rain = 0
KBY1 020341Z 05001KT M03/M15 A3033 RMK A01 T10251148  RH  038%=      5-min Rain = 0
KBY1 020342Z 06001KT M03/M15 A3033 RMK A01 T10301152  RH  039%=      5-min Rain = 0
KBY1 020343Z 06001KT M04/M15 A3033 RMK A01 T10351152  RH  040%=      5-min Rain = 0
KBY1 020344Z 00000KT M04/M15 A3033 RMK A01 T10391150  RH  042%=      5-min Rain = 0
KBY1 020345Z 23000KT M04/M15 A3033 RMK A01 T10391148  RH  043%=      5-min Rain = 0
KBY1 020346Z 23000KT M04/M15 A3033 RMK A01 T10391145  RH  044%=      5-min Rain = 0
KBY1 020347Z 00000KT M04/M14 A3033 RMK A01 T10381141  RH  045%=      5-min Rain = 0
KBY1 020348Z 00000KT M04/M14 A3033 RMK A01 T10371139  RH  045%=      5-min Rain = 0
KBY1 020349Z 00000KT M04/M14 A3033 RMK A01 T10371137  RH  046%=      5-min Rain = 0
KBY1 020350Z 28000KT M04/M14 A3033 RMK A01 T10371137  RH  046%=      5-min Rain = 0
KBY1 020351Z 05001KT M04/M14 A3033 RMK A01 T10371137  RH  046%=      5-min Rain = 0
KBY1 020352Z 04000KT M04/M14 A3033 RMK A01 T10371138  RH  046%=      5-min Rain = 0
KBY1 020353Z 03001KT M04/M14 A3033 RMK A01 T10371142  RH  044%=      5-min Rain = 0
KBY1 020354Z 03000KT M04/M15 A3033 RMK A01 T10361146  RH  042%=      5-min Rain = 0
KBY1 020355Z 00000KT M04/M15 A3033 RMK A01 T10361147  RH  042%=      5-min Rain = 0
KBY1 020356Z 00000KT M04/M15 A3033 RMK A01 T10361146  RH  042%=      5-min Rain = 0
KBY1 020357Z 00000KT M04/M15 A3033 RMK A01 T10361145  RH  043%=      5-min Rain = 0
KBY1 020358Z 00000KT M04/M15 A3033 RMK A01 T10361145  RH  043%=      5-min Rain = 0
KBY1 020359Z 00000KT M04/M14 A3033 RMK A01 T10361144  RH  043%=      5-min Rain = 0
KBY1 020400Z 00000KT M04/M14 A3033 RMK A01 T10371144  RH  043%=      5-min Rain = 0
KBY1 020401Z 00000KT M04/M14 A3033 RMK A01 T10371144  RH  043%=      5-min Rain = 0
KBY1 020402Z 00000KT M04/M14 A3033 RMK A01 T10361144  RH  043%=      5-min Rain = 0
KBY1 020403Z 00000KT M03/M14 A3033 RMK A01 T10341142  RH  043%=      5-min Rain = 0
KBY1 020404Z 00000KT M03/M14 A3033 RMK A01 T10331141  RH  043%=      5-min Rain = 0
KBY1 020405Z 00000KT M03/M14 A3033 RMK A01 T10321141  RH  043%=      5-min Rain = 0
KBY1 020406Z 00000KT M03/M14 A3033 RMK A01 T10311142  RH  042%=      5-min Rain = 0
KBY1 020407Z 00000KT M03/M14 A3033 RMK A01 T10291141  RH  042%=      5-min Rain = 0
KBY1 020408Z 00001KT M03/M14 A3033 RMK A01 T10281143  RH  041%=      5-min Rain = 0
KBY1 020409Z 00000KT M03/M15 A3033 RMK A01 T10291145  RH  040%=      5-min Rain = 0
KBY1 020410Z 00000KT M03/M15 A3033 RMK A01 T10301146  RH  040%=      5-min Rain = 0
KBY1 020411Z 00000KT M03/M15 A3033 RMK A01 T10311146  RH  041%=      5-min Rain = 0
KBY1 020412Z 00000KT M03/M15 A3033 RMK A01 T10321147  RH  041%=      5-min Rain = 0
KBY1 020413Z 22001KT M03/M15 A3033 RMK A01 T10331146  RH  041%=      5-min Rain = 0
KBY1 020414Z 00000KT M03/M15 A3033 RMK A01 T10331146  RH  041%=      5-min Rain = 0
KBY1 020415Z 22000KT M03/M15 A3033 RMK A01 T10331145  RH  042%=      5-min Rain = 0
KBY1 020416Z 00000KT M03/M15 A3033 RMK A01 T10341145  RH  042%=      5-min Rain = 0
KBY1 020417Z 00000KT M04/M15 A3033 RMK A01 T10361146  RH  042%=      5-min Rain = 0
KBY1 020418Z 00000KT M03/M14 A3033 RMK A01 T10341144  RH  042%=      5-min Rain = 0
KBY1 020419Z 00000KT M03/M14 A3033 RMK A01 T10321143  RH  042%=      5-min Rain = 0
KBY1 020420Z 00000KT M03/M15 A3033 RMK A01 T10331145  RH  042%=      5-min Rain = 0
KBY1 020421Z 06000KT M04/M15 A3033 RMK A01 T10371147  RH  042%=      5-min Rain = 0
KBY1 020422Z 00000KT M04/M15 A3033 RMK A01 T10381148  RH  042%=      5-min Rain = 0
KBY1 020423Z 00000KT M04/M15 A3033 RMK A01 T10391148  RH  043%=      5-min Rain = 0
KBY1 020424Z 00000KT M04/M15 A3033 RMK A01 T10401148  RH  043%=      5-min Rain = 0
KBY1 020425Z 00000KT M04/M15 A3033 RMK A01 T10411148  RH  043%=      5-min Rain = 0
KBY1 020426Z 00000KT M04/M15 A3033 RMK A01 T10411148  RH  043%=      5-min Rain = 0
KBY1 020427Z 09000KT M04/M15 A3033 RMK A01 T10411147  RH  043%=      5-min Rain = 0
KBY1 020428Z 09001KT M04/M15 A3033 RMK A01 T10411147  RH  044%=      5-min Rain = 0
KBY1 020429Z 09000KT M04/M15 A3033 RMK A01 T10411147  RH  044%=      5-min Rain = 0
KBY1 020430Z 09000KT M04/M15 A3033 RMK A01 T10411146  RH  044%=      5-min Rain = 0
KBY1 020431Z 06001KT M04/M15 A3033 RMK A01 T10401145  RH  044%=      5-min Rain = 0
KBY1 020432Z 06001KT M04/M15 A3033 RMK A01 T10411146  RH  044%=      5-min Rain = 0
KBY1 020433Z 05001KT M04/M15 A3033 RMK A01 T10421147  RH  044%=      5-min Rain = 0
KBY1 020434Z 05001KT M04/M15 A3033 RMK A01 T10431147  RH  044%=      5-min Rain = 0
KBY1 020435Z 06001KT M04/M15 A3033 RMK A01 T10431147  RH  044%=      5-min Rain = 0
KBY1 020436Z 09001KT M04/M15 A3033 RMK A01 T10441148  RH  044%=      5-min Rain = 0
KBY1 020437Z 09000KT M05/M15 A3033 RMK A01 T10451148  RH  044%=      5-min Rain = 0
KBY1 020438Z 00000KT M05/M15 A3033 RMK A01 T10451147  RH  045%=      5-min Rain = 0
KBY1 020439Z 00000KT M05/M15 A3033 RMK A01 T10461147  RH  045%=      5-min Rain = 0
KBY1 020440Z 00000KT M05/M15 A3033 RMK A01 T10491147  RH  046%=      5-min Rain = 0
KBY1 020441Z 09000KT M05/M15 A3033 RMK A01 T10501147  RH  047%=      5-min Rain = 0
KBY1 020442Z 09000KT M05/M14 A3033 RMK A01 T10501144  RH  048%=      5-min Rain = 0
KBY1 020443Z 09000KT M05/M14 A3033 RMK A01 T10511142  RH  049%=      5-min Rain = 0
KBY1 020444Z 09000KT M05/M14 A3033 RMK A01 T10521142  RH  049%=      5-min Rain = 0
KBY1 020445Z 09000KT M05/M14 A3033 RMK A01 T10531143  RH  049%=      5-min Rain = 0
KBY1 020446Z 00000KT M05/M14 A3033 RMK A01 T10541143  RH  049%=      5-min Rain = 0
KBY1 020447Z 00000KT M05/M14 A3033 RMK A01 T10531140  RH  050%=      5-min Rain = 0
KBY1 020448Z 19000KT M05/M14 A3033 RMK A01 T10531140  RH  051%=      5-min Rain = 0
KBY1 020449Z 19000KT M05/M14 A3033 RMK A01 T10521140  RH  050%=      5-min Rain = 0
KBY1 020450Z 20000KT M05/M14 A3033 RMK A01 T10521142  RH  049%=      5-min Rain = 0
KBY1 020451Z 20001KT M05/M14 A3033 RMK A01 T10511144  RH  048%=      5-min Rain = 0
KBY1 020452Z 20001KT M05/M15 A3033 RMK A01 T10501145  RH  047%=      5-min Rain = 0
KBY1 020453Z 20000KT M05/M15 A3033 RMK A01 T10501146  RH  047%=      5-min Rain = 0
KBY1 020454Z 00000KT M05/M15 A3033 RMK A01 T10491145  RH  047%=      5-min Rain = 0
KBY1 020455Z 00000KT M05/M14 A3033 RMK A01 T10481143  RH  048%=      5-min Rain = 0
KBY1 020456Z 00000KT M05/M14 A3033 RMK A01 T10471142  RH  047%=      5-min Rain = 0
KBY1 020457Z 00000KT M05/M14 A3033 RMK A01 T10491144  RH  047%=      5-min Rain = 0
KBY1 020458Z 00000KT M05/M15 A3033 RMK A01 T10501145  RH  047%=      5-min Rain = 0
KBY1 020459Z 00000KT M05/M15 A3033 RMK A01 T10501145  RH  047%=      5-min Rain = 0
KBY1 020500Z 00000KT M05/M15 A3033 RMK A01 T10521147  RH  047%=      5-min Rain = 0
KBY1 020501Z 00000KT M05/M15 A3033 RMK A01 T10541148  RH  048%=      5-min Rain = 0
KBY1 020502Z 00000KT M06/M15 A3033 RMK A01 T10551148  RH  048%=      5-min Rain = 0
KBY1 020503Z 00000KT M06/M15 A3033 RMK A01 T10561146  RH  049%=      5-min Rain = 0
KBY1 020504Z 00000KT M06/M15 A3033 RMK A01 T10571145  RH  050%=      5-min Rain = 0
KBY1 020505Z 00000KT M06/M15 A3033 RMK A01 T10571145  RH  050%=      5-min Rain = 0
KBY1 020506Z 00000KT M06/M15 A3033 RMK A01 T10571145  RH  050%=      5-min Rain = 0
KBY1 020507Z 00000KT M06/M15 A3033 RMK A01 T10581146  RH  050%=      5-min Rain = 0
KBY1 020508Z 20000KT M06/M15 A3033 RMK A01 T10571146  RH  050%=      5-min Rain = 0
KBY1 020509Z 19000KT M06/M15 A3033 RMK A01 T10581146  RH  050%=      5-min Rain = 0
KBY1 020510Z 03001KT M06/M15 A3033 RMK A01 T10581147  RH  049%=      5-min Rain = 0
KBY1 020511Z 03000KT M06/M15 A3033 RMK A01 T10571147  RH  049%=      5-min Rain = 0
KBY1 020512Z 03000KT M06/M15 A3033 RMK A01 T10581148  RH  049%=      5-min Rain = 0
KBY1 020513Z 03000KT M06/M15 A3033 RMK A01 T10581148  RH  049%=      5-min Rain = 0
KBY1 020514Z 00000KT M06/M15 A3033 RMK A01 T10581149  RH  049%=      5-min Rain = 0
KBY1 020515Z 00000KT M06/M15 A3033 RMK A01 T10581149  RH  049%=      5-min Rain = 0
KBY1 020516Z 00000KT M06/M15 A3033 RMK A01 T10581148  RH  049%=      5-min Rain = 0
KBY1 020517Z 00000KT M06/M15 A3033 RMK A01 T10581148  RH  049%=      5-min Rain = 0
KBY1 020518Z 00000KT M06/M15 A3033 RMK A01 T10581148  RH  049%=      5-min Rain = 0
KBY1 020519Z 00000KT M06/M15 A3033 RMK A01 T10581148  RH  049%=      5-min Rain = 0
KBY1 020520Z 00000KT M06/M15 A3033 RMK A01 T10591148  RH  049%=      5-min Rain = 0
KBY1 020521Z 00000KT M06/M15 A3033 RMK A01 T10591148  RH  050%=      5-min Rain = 0
KBY1 020522Z 00000KT M06/M15 A3033 RMK A01 T10591148  RH  049%=      5-min Rain = 0
KBY1 020523Z 00000KT M06/M15 A3033 RMK A01 T10591148  RH  049%=      5-min Rain = 0
KBY1 020524Z 00000KT M06/M15 A3032 RMK A01 T10591148  RH  049%=      5-min Rain = 0
KBY1 020525Z 00000KT M06/M15 A3032 RMK A01 T10601149  RH  049%=      5-min Rain = 0
KBY1 020526Z 00000KT M06/M15 A3032 RMK A01 T10601148  RH  049%=      5-min Rain = 0
KBY1 020527Z 00000KT M06/M15 A3032 RMK A01 T10591148  RH  049%=      5-min Rain = 0
KBY1 020528Z 00000KT M06/M15 A3032 RMK A01 T10581148  RH  049%=      5-min Rain = 0
KBY1 020529Z 00000KT M06/M15 A3032 RMK A01 T10591149  RH  049%=      5-min Rain = 0
KBY1 020530Z 00000KT M06/M15 A3032 RMK A01 T10591149  RH  049%=      5-min Rain = 0
KBY1 020531Z 00000KT M06/M15 A3032 RMK A01 T10581149  RH  049%=      5-min Rain = 0
KBY1 020532Z 19000KT M06/M15 A3032 RMK A01 T10581148  RH  049%=      5-min Rain = 0
KBY1 020533Z 00000KT M06/M15 A3032 RMK A01 T10581148  RH  049%=      5-min Rain = 0
KBY1 020534Z 19000KT M06/M15 A3032 RMK A01 T10571147  RH  049%=      5-min Rain = 0
KBY1 020535Z 00000KT M06/M15 A3032 RMK A01 T10581148  RH  049%=      5-min Rain = 0
KBY1 020536Z 00000KT M06/M15 A3032 RMK A01 T10591148  RH  049%=      5-min Rain = 0
KBY1 020537Z 00000KT M06/M15 A3032 RMK A01 T10591149  RH  049%=      5-min Rain = 0
KBY1 020538Z 00000KT M06/M15 A3032 RMK A01 T10601149  RH  049%=      5-min Rain = 0
KBY1 020539Z 00000KT M06/M15 A3032 RMK A01 T10591147  RH  050%=      5-min Rain = 0
KBY1 020540Z 36000KT M06/M15 A3032 RMK A01 T10581146  RH  050%=      5-min Rain = 0
KBY1 020541Z 02001KT M06/M15 A3032 RMK A01 T10571146  RH  049%=      5-min Rain = 0
KBY1 020542Z 04000KT M06/M15 A3032 RMK A01 T10571147  RH  049%=      5-min Rain = 0
KBY1 020543Z 00000KT M06/M15 A3032 RMK A01 T10581148  RH  049%=      5-min Rain = 0
KBY1 020544Z 00000KT M06/M15 A3032 RMK A01 T10601149  RH  049%=      5-min Rain = 0
KBY1 020545Z 00000KT M06/M15 A3032 RMK A01 T10621149  RH  050%=      5-min Rain = 0
KBY1 020546Z 19001KT M06/M15 A3032 RMK A01 T10621149  RH  050%=      5-min Rain = 0
KBY1 020547Z 20001KT M06/M15 A3032 RMK A01 T10631149  RH  051%=      5-min Rain = 0
KBY1 020548Z 21001KT M07/M15 A3032 RMK A01 T10651150  RH  051%=      5-min Rain = 0
KBY1 020549Z 23002KT M07/M15 A3032 RMK A01 T10661150  RH  051%=      5-min Rain = 0
KBY1 020550Z 24000KT M07/M15 A3032 RMK A01 T10671149  RH  052%=      5-min Rain = 0
KBY1 020551Z 00000KT M07/M15 A3032 RMK A01 T10661146  RH  053%=      5-min Rain = 0
KBY1 020552Z 00000KT M07/M15 A3032 RMK A01 T10651145  RH  053%=      5-min Rain = 0
KBY1 020553Z 00000KT M06/M15 A3032 RMK A01 T10641147  RH  052%=      5-min Rain = 0
KBY1 020554Z 00000KT M06/M15 A3032 RMK A01 T10631147  RH  051%=      5-min Rain = 0
KBY1 020555Z 25000KT M06/M15 A3032 RMK A01 T10621146  RH  051%=      5-min Rain = 0
KBY1 020556Z 26001KT M06/M15 A3032 RMK A01 T10621147  RH  051%=      5-min Rain = 0
KBY1 020557Z 28002KT M06/M15 A3032 RMK A01 T10631147  RH  051%=      5-min Rain = 0
KBY1 020558Z 30001KT M06/M15 A3032 RMK A01 T10631146  RH  052%=      5-min Rain = 0
KBY1 020559Z 30003KT M06/M14 A3032 RMK A01 T10641144  RH  053%=      5-min Rain = 0

Page generated in 0.1141 seconds.